<?xml version="1.0" encoding="UTF-8" standalone="no" ?>
<gpx xmlns="http://www.topografix.com/GPX/1/1" xmlns:xsi="http://www.w3.org/2001/XMLSchema-instance" xsi:schemaLocation="http://www.topografix.com/GPX/1/1 http://www.topografix.com/GPX/1/1/gpx.xsd" version="1.1" creator="VisuGPX - https://www.visugpx.com">
  <metadata>
    <name>Rando : Lacs de la Cayolle</name>
  </metadata>
  <trk>
    <name><![CDATA[23-JUIL-20 16:59:06]]></name>
    <trkseg>
      <trkpt lat="44.25944" lon="6.74404">
        <ele>2327.97</ele>
        <time>2020-07-23T10:13:57Z</time>
      </trkpt>
      <trkpt lat="44.2594" lon="6.74401">
        <ele>2324.12</ele>
        <time>2020-07-23T10:14:01Z</time>
      </trkpt>
      <trkpt lat="44.25941" lon="6.74407">
        <ele>2320.76</ele>
        <time>2020-07-23T10:14:21Z</time>
      </trkpt>
      <trkpt lat="44.25939" lon="6.74402">
        <ele>2321.72</ele>
        <time>2020-07-23T10:14:39Z</time>
      </trkpt>
      <trkpt lat="44.25939" lon="6.744">
        <ele>2326.53</ele>
        <time>2020-07-23T10:14:55Z</time>
      </trkpt>
      <trkpt lat="44.25938" lon="6.744">
        <ele>2326.05</ele>
        <time>2020-07-23T10:15:08Z</time>
      </trkpt>
      <trkpt lat="44.2594" lon="6.74401">
        <ele>2326.05</ele>
        <time>2020-07-23T10:15:21Z</time>
      </trkpt>
      <trkpt lat="44.2594" lon="6.74403">
        <ele>2327.01</ele>
        <time>2020-07-23T10:15:24Z</time>
      </trkpt>
      <trkpt lat="44.2594" lon="6.74408">
        <ele>2327.97</ele>
        <time>2020-07-23T10:15:27Z</time>
      </trkpt>
      <trkpt lat="44.25936" lon="6.74415">
        <ele>2327.01</ele>
        <time>2020-07-23T10:15:41Z</time>
      </trkpt>
      <trkpt lat="44.25939" lon="6.74418">
        <ele>2324.61</ele>
        <time>2020-07-23T10:16:01Z</time>
      </trkpt>
      <trkpt lat="44.25941" lon="6.74417">
        <ele>2326.53</ele>
        <time>2020-07-23T10:16:15Z</time>
      </trkpt>
      <trkpt lat="44.2594" lon="6.74417">
        <ele>2327.01</ele>
        <time>2020-07-23T10:16:35Z</time>
      </trkpt>
      <trkpt lat="44.2594" lon="6.74417">
        <ele>2327.97</ele>
        <time>2020-07-23T10:16:52Z</time>
      </trkpt>
      <trkpt lat="44.25938" lon="6.74417">
        <ele>2327.97</ele>
        <time>2020-07-23T10:17:10Z</time>
      </trkpt>
      <trkpt lat="44.25939" lon="6.74409">
        <ele>2325.09</ele>
        <time>2020-07-23T10:17:20Z</time>
      </trkpt>
      <trkpt lat="44.25941" lon="6.74406">
        <ele>2324.61</ele>
        <time>2020-07-23T10:17:23Z</time>
      </trkpt>
      <trkpt lat="44.25962" lon="6.74398">
        <ele>2325.57</ele>
        <time>2020-07-23T10:17:43Z</time>
      </trkpt>
      <trkpt lat="44.25977" lon="6.7439">
        <ele>2327.49</ele>
        <time>2020-07-23T10:17:59Z</time>
      </trkpt>
      <trkpt lat="44.25985" lon="6.74372">
        <ele>2330.37</ele>
        <time>2020-07-23T10:18:17Z</time>
      </trkpt>
      <trkpt lat="44.25985" lon="6.74362">
        <ele>2329.41</ele>
        <time>2020-07-23T10:18:27Z</time>
      </trkpt>
      <trkpt lat="44.2599" lon="6.74346">
        <ele>2330.85</ele>
        <time>2020-07-23T10:18:40Z</time>
      </trkpt>
      <trkpt lat="44.25993" lon="6.74335">
        <ele>2332.3</ele>
        <time>2020-07-23T10:18:53Z</time>
      </trkpt>
      <trkpt lat="44.25994" lon="6.7432">
        <ele>2333.26</ele>
        <time>2020-07-23T10:19:06Z</time>
      </trkpt>
      <trkpt lat="44.25995" lon="6.74309">
        <ele>2333.26</ele>
        <time>2020-07-23T10:19:17Z</time>
      </trkpt>
      <trkpt lat="44.25996" lon="6.74308">
        <ele>2333.74</ele>
        <time>2020-07-23T10:19:18Z</time>
      </trkpt>
      <trkpt lat="44.25997" lon="6.74294">
        <ele>2335.66</ele>
        <time>2020-07-23T10:19:31Z</time>
      </trkpt>
      <trkpt lat="44.25997" lon="6.74285">
        <ele>2336.14</ele>
        <time>2020-07-23T10:19:39Z</time>
      </trkpt>
      <trkpt lat="44.25999" lon="6.74274">
        <ele>2337.1</ele>
        <time>2020-07-23T10:19:53Z</time>
      </trkpt>
      <trkpt lat="44.25997" lon="6.7426">
        <ele>2338.54</ele>
        <time>2020-07-23T10:20:06Z</time>
      </trkpt>
      <trkpt lat="44.25997" lon="6.74247">
        <ele>2339.02</ele>
        <time>2020-07-23T10:20:20Z</time>
      </trkpt>
      <trkpt lat="44.26" lon="6.74233">
        <ele>2340.95</ele>
        <time>2020-07-23T10:20:33Z</time>
      </trkpt>
      <trkpt lat="44.26007" lon="6.74218">
        <ele>2341.43</ele>
        <time>2020-07-23T10:20:48Z</time>
      </trkpt>
      <trkpt lat="44.26015" lon="6.74204">
        <ele>2343.83</ele>
        <time>2020-07-23T10:21:03Z</time>
      </trkpt>
      <trkpt lat="44.2602" lon="6.74191">
        <ele>2343.83</ele>
        <time>2020-07-23T10:21:15Z</time>
      </trkpt>
      <trkpt lat="44.26026" lon="6.74175">
        <ele>2345.27</ele>
        <time>2020-07-23T10:21:30Z</time>
      </trkpt>
      <trkpt lat="44.26032" lon="6.74165">
        <ele>2346.72</ele>
        <time>2020-07-23T10:21:43Z</time>
      </trkpt>
      <trkpt lat="44.26041" lon="6.74153">
        <ele>2349.12</ele>
        <time>2020-07-23T10:21:59Z</time>
      </trkpt>
      <trkpt lat="44.26048" lon="6.74141">
        <ele>2351.52</ele>
        <time>2020-07-23T10:22:13Z</time>
      </trkpt>
      <trkpt lat="44.26052" lon="6.74136">
        <ele>2352.48</ele>
        <time>2020-07-23T10:22:34Z</time>
      </trkpt>
      <trkpt lat="44.26055" lon="6.74133">
        <ele>2353.44</ele>
        <time>2020-07-23T10:22:40Z</time>
      </trkpt>
      <trkpt lat="44.26063" lon="6.74122">
        <ele>2354.89</ele>
        <time>2020-07-23T10:22:54Z</time>
      </trkpt>
      <trkpt lat="44.26066" lon="6.7412">
        <ele>2355.37</ele>
        <time>2020-07-23T10:22:58Z</time>
      </trkpt>
      <trkpt lat="44.26076" lon="6.74112">
        <ele>2357.77</ele>
        <time>2020-07-23T10:23:12Z</time>
      </trkpt>
      <trkpt lat="44.26086" lon="6.74108">
        <ele>2360.17</ele>
        <time>2020-07-23T10:23:27Z</time>
      </trkpt>
      <trkpt lat="44.26097" lon="6.74102">
        <ele>2362.1</ele>
        <time>2020-07-23T10:23:41Z</time>
      </trkpt>
      <trkpt lat="44.26106" lon="6.74095">
        <ele>2364.02</ele>
        <time>2020-07-23T10:23:55Z</time>
      </trkpt>
      <trkpt lat="44.26107" lon="6.74093">
        <ele>2364.5</ele>
        <time>2020-07-23T10:23:58Z</time>
      </trkpt>
      <trkpt lat="44.26112" lon="6.74078">
        <ele>2365.46</ele>
        <time>2020-07-23T10:24:13Z</time>
      </trkpt>
      <trkpt lat="44.2611" lon="6.74064">
        <ele>2366.42</ele>
        <time>2020-07-23T10:24:27Z</time>
      </trkpt>
      <trkpt lat="44.26109" lon="6.7405">
        <ele>2367.38</ele>
        <time>2020-07-23T10:24:41Z</time>
      </trkpt>
      <trkpt lat="44.26105" lon="6.74036">
        <ele>2369.31</ele>
        <time>2020-07-23T10:24:54Z</time>
      </trkpt>
      <trkpt lat="44.26099" lon="6.74021">
        <ele>2370.75</ele>
        <time>2020-07-23T10:25:10Z</time>
      </trkpt>
      <trkpt lat="44.26091" lon="6.74008">
        <ele>2372.19</ele>
        <time>2020-07-23T10:25:25Z</time>
      </trkpt>
      <trkpt lat="44.26081" lon="6.73996">
        <ele>2373.15</ele>
        <time>2020-07-23T10:25:41Z</time>
      </trkpt>
      <trkpt lat="44.26072" lon="6.73983">
        <ele>2374.59</ele>
        <time>2020-07-23T10:25:56Z</time>
      </trkpt>
      <trkpt lat="44.26065" lon="6.73973">
        <ele>2377.48</ele>
        <time>2020-07-23T10:26:10Z</time>
      </trkpt>
      <trkpt lat="44.26057" lon="6.73962">
        <ele>2378.92</ele>
        <time>2020-07-23T10:26:24Z</time>
      </trkpt>
      <trkpt lat="44.26048" lon="6.73956">
        <ele>2378.92</ele>
        <time>2020-07-23T10:26:36Z</time>
      </trkpt>
      <trkpt lat="44.26035" lon="6.73953">
        <ele>2381.32</ele>
        <time>2020-07-23T10:26:52Z</time>
      </trkpt>
      <trkpt lat="44.26028" lon="6.73951">
        <ele>2381.8</ele>
        <time>2020-07-23T10:27:07Z</time>
      </trkpt>
      <trkpt lat="44.26028" lon="6.7395">
        <ele>2382.76</ele>
        <time>2020-07-23T10:27:24Z</time>
      </trkpt>
      <trkpt lat="44.26028" lon="6.7395">
        <ele>2383.25</ele>
        <time>2020-07-23T10:27:52Z</time>
      </trkpt>
      <trkpt lat="44.26028" lon="6.73949">
        <ele>2382.28</ele>
        <time>2020-07-23T10:28:11Z</time>
      </trkpt>
      <trkpt lat="44.26028" lon="6.7395">
        <ele>2381.32</ele>
        <time>2020-07-23T10:28:35Z</time>
      </trkpt>
      <trkpt lat="44.26016" lon="6.73946">
        <ele>2383.73</ele>
        <time>2020-07-23T10:28:48Z</time>
      </trkpt>
      <trkpt lat="44.25995" lon="6.7395">
        <ele>2385.65</ele>
        <time>2020-07-23T10:29:09Z</time>
      </trkpt>
      <trkpt lat="44.25992" lon="6.7395">
        <ele>2385.65</ele>
        <time>2020-07-23T10:29:12Z</time>
      </trkpt>
      <trkpt lat="44.25989" lon="6.7395">
        <ele>2386.13</ele>
        <time>2020-07-23T10:29:15Z</time>
      </trkpt>
      <trkpt lat="44.25973" lon="6.73944">
        <ele>2386.13</ele>
        <time>2020-07-23T10:29:33Z</time>
      </trkpt>
      <trkpt lat="44.2596" lon="6.73936">
        <ele>2387.09</ele>
        <time>2020-07-23T10:29:48Z</time>
      </trkpt>
      <trkpt lat="44.25947" lon="6.73931">
        <ele>2387.57</ele>
        <time>2020-07-23T10:30:03Z</time>
      </trkpt>
      <trkpt lat="44.25938" lon="6.73927">
        <ele>2388.53</ele>
        <time>2020-07-23T10:30:15Z</time>
      </trkpt>
      <trkpt lat="44.25927" lon="6.73922">
        <ele>2389.97</ele>
        <time>2020-07-23T10:30:30Z</time>
      </trkpt>
      <trkpt lat="44.25915" lon="6.73919">
        <ele>2391.9</ele>
        <time>2020-07-23T10:30:44Z</time>
      </trkpt>
      <trkpt lat="44.25905" lon="6.73913">
        <ele>2392.38</ele>
        <time>2020-07-23T10:30:57Z</time>
      </trkpt>
      <trkpt lat="44.25895" lon="6.7391">
        <ele>2391.42</ele>
        <time>2020-07-23T10:31:10Z</time>
      </trkpt>
      <trkpt lat="44.25883" lon="6.73907">
        <ele>2392.86</ele>
        <time>2020-07-23T10:31:25Z</time>
      </trkpt>
      <trkpt lat="44.25872" lon="6.73906">
        <ele>2394.3</ele>
        <time>2020-07-23T10:31:38Z</time>
      </trkpt>
      <trkpt lat="44.25863" lon="6.73908">
        <ele>2395.26</ele>
        <time>2020-07-23T10:31:50Z</time>
      </trkpt>
      <trkpt lat="44.2585" lon="6.73911">
        <ele>2396.22</ele>
        <time>2020-07-23T10:32:04Z</time>
      </trkpt>
      <trkpt lat="44.25849" lon="6.73912">
        <ele>2396.22</ele>
        <time>2020-07-23T10:32:05Z</time>
      </trkpt>
      <trkpt lat="44.25848" lon="6.73913">
        <ele>2396.7</ele>
        <time>2020-07-23T10:32:07Z</time>
      </trkpt>
      <trkpt lat="44.25835" lon="6.73915">
        <ele>2397.67</ele>
        <time>2020-07-23T10:32:21Z</time>
      </trkpt>
      <trkpt lat="44.25818" lon="6.7392">
        <ele>2399.11</ele>
        <time>2020-07-23T10:32:40Z</time>
      </trkpt>
      <trkpt lat="44.25813" lon="6.7392">
        <ele>2399.11</ele>
        <time>2020-07-23T10:32:46Z</time>
      </trkpt>
      <trkpt lat="44.25797" lon="6.73918">
        <ele>2399.11</ele>
        <time>2020-07-23T10:33:02Z</time>
      </trkpt>
      <trkpt lat="44.25786" lon="6.73919">
        <ele>2401.51</ele>
        <time>2020-07-23T10:33:16Z</time>
      </trkpt>
      <trkpt lat="44.25784" lon="6.73919">
        <ele>2401.51</ele>
        <time>2020-07-23T10:33:18Z</time>
      </trkpt>
      <trkpt lat="44.25773" lon="6.7392">
        <ele>2402.47</ele>
        <time>2020-07-23T10:33:31Z</time>
      </trkpt>
      <trkpt lat="44.25772" lon="6.7392">
        <ele>2402.95</ele>
        <time>2020-07-23T10:33:44Z</time>
      </trkpt>
      <trkpt lat="44.25772" lon="6.73919">
        <ele>2402.47</ele>
        <time>2020-07-23T10:34:02Z</time>
      </trkpt>
      <trkpt lat="44.25772" lon="6.7392">
        <ele>2402.95</ele>
        <time>2020-07-23T10:34:26Z</time>
      </trkpt>
      <trkpt lat="44.25772" lon="6.7392">
        <ele>2402.95</ele>
        <time>2020-07-23T10:34:51Z</time>
      </trkpt>
      <trkpt lat="44.25772" lon="6.7392">
        <ele>2402.47</ele>
        <time>2020-07-23T10:35:32Z</time>
      </trkpt>
      <trkpt lat="44.25772" lon="6.73919">
        <ele>2402.47</ele>
        <time>2020-07-23T10:36:07Z</time>
      </trkpt>
      <trkpt lat="44.25771" lon="6.7392">
        <ele>2403.43</ele>
        <time>2020-07-23T10:36:43Z</time>
      </trkpt>
      <trkpt lat="44.2577" lon="6.7392">
        <ele>2403.43</ele>
        <time>2020-07-23T10:37:00Z</time>
      </trkpt>
      <trkpt lat="44.25771" lon="6.7392">
        <ele>2402.95</ele>
        <time>2020-07-23T10:37:15Z</time>
      </trkpt>
      <trkpt lat="44.2577" lon="6.73918">
        <ele>2401.99</ele>
        <time>2020-07-23T10:37:30Z</time>
      </trkpt>
      <trkpt lat="44.25761" lon="6.73908">
        <ele>2403.43</ele>
        <time>2020-07-23T10:37:42Z</time>
      </trkpt>
      <trkpt lat="44.25759" lon="6.73906">
        <ele>2404.39</ele>
        <time>2020-07-23T10:37:45Z</time>
      </trkpt>
      <trkpt lat="44.25749" lon="6.73897">
        <ele>2405.36</ele>
        <time>2020-07-23T10:37:58Z</time>
      </trkpt>
      <trkpt lat="44.25743" lon="6.73882">
        <ele>2406.32</ele>
        <time>2020-07-23T10:38:13Z</time>
      </trkpt>
      <trkpt lat="44.25738" lon="6.73868">
        <ele>2407.76</ele>
        <time>2020-07-23T10:38:27Z</time>
      </trkpt>
      <trkpt lat="44.25735" lon="6.73857">
        <ele>2410.16</ele>
        <time>2020-07-23T10:38:39Z</time>
      </trkpt>
      <trkpt lat="44.25729" lon="6.73843">
        <ele>2411.12</ele>
        <time>2020-07-23T10:38:55Z</time>
      </trkpt>
      <trkpt lat="44.25724" lon="6.73831">
        <ele>2412.57</ele>
        <time>2020-07-23T10:39:09Z</time>
      </trkpt>
      <trkpt lat="44.25721" lon="6.7382">
        <ele>2413.05</ele>
        <time>2020-07-23T10:39:22Z</time>
      </trkpt>
      <trkpt lat="44.25717" lon="6.73808">
        <ele>2414.97</ele>
        <time>2020-07-23T10:39:35Z</time>
      </trkpt>
      <trkpt lat="44.25714" lon="6.73797">
        <ele>2416.41</ele>
        <time>2020-07-23T10:39:48Z</time>
      </trkpt>
      <trkpt lat="44.25711" lon="6.73784">
        <ele>2417.85</ele>
        <time>2020-07-23T10:40:02Z</time>
      </trkpt>
      <trkpt lat="44.25711" lon="6.73783">
        <ele>2417.85</ele>
        <time>2020-07-23T10:40:03Z</time>
      </trkpt>
      <trkpt lat="44.25711" lon="6.73763">
        <ele>2418.81</ele>
        <time>2020-07-23T10:40:20Z</time>
      </trkpt>
      <trkpt lat="44.25711" lon="6.73746">
        <ele>2419.78</ele>
        <time>2020-07-23T10:40:35Z</time>
      </trkpt>
      <trkpt lat="44.25708" lon="6.73729">
        <ele>2423.14</ele>
        <time>2020-07-23T10:40:51Z</time>
      </trkpt>
      <trkpt lat="44.25707" lon="6.73715">
        <ele>2426.02</ele>
        <time>2020-07-23T10:41:04Z</time>
      </trkpt>
      <trkpt lat="44.25706" lon="6.73714">
        <ele>2426.02</ele>
        <time>2020-07-23T10:41:05Z</time>
      </trkpt>
      <trkpt lat="44.25703" lon="6.73709">
        <ele>2426.99</ele>
        <time>2020-07-23T10:41:11Z</time>
      </trkpt>
      <trkpt lat="44.25695" lon="6.73691">
        <ele>2427.95</ele>
        <time>2020-07-23T10:41:27Z</time>
      </trkpt>
      <trkpt lat="44.25685" lon="6.73671">
        <ele>2427.95</ele>
        <time>2020-07-23T10:41:44Z</time>
      </trkpt>
      <trkpt lat="44.25681" lon="6.73668">
        <ele>2427.95</ele>
        <time>2020-07-23T10:41:52Z</time>
      </trkpt>
      <trkpt lat="44.25677" lon="6.73654">
        <ele>2429.39</ele>
        <time>2020-07-23T10:42:05Z</time>
      </trkpt>
      <trkpt lat="44.2567" lon="6.7364">
        <ele>2430.35</ele>
        <time>2020-07-23T10:42:19Z</time>
      </trkpt>
      <trkpt lat="44.25661" lon="6.73629">
        <ele>2431.79</ele>
        <time>2020-07-23T10:42:34Z</time>
      </trkpt>
      <trkpt lat="44.25655" lon="6.73621">
        <ele>2433.23</ele>
        <time>2020-07-23T10:42:47Z</time>
      </trkpt>
      <trkpt lat="44.25654" lon="6.73616">
        <ele>2433.71</ele>
        <time>2020-07-23T10:43:01Z</time>
      </trkpt>
      <trkpt lat="44.25652" lon="6.73604">
        <ele>2433.71</ele>
        <time>2020-07-23T10:43:19Z</time>
      </trkpt>
      <trkpt lat="44.25652" lon="6.73599">
        <ele>2435.16</ele>
        <time>2020-07-23T10:43:29Z</time>
      </trkpt>
      <trkpt lat="44.25653" lon="6.73578">
        <ele>2435.64</ele>
        <time>2020-07-23T10:43:45Z</time>
      </trkpt>
      <trkpt lat="44.25655" lon="6.73576">
        <ele>2436.6</ele>
        <time>2020-07-23T10:43:48Z</time>
      </trkpt>
      <trkpt lat="44.25658" lon="6.73569">
        <ele>2437.08</ele>
        <time>2020-07-23T10:44:02Z</time>
      </trkpt>
      <trkpt lat="44.2566" lon="6.73556">
        <ele>2439</ele>
        <time>2020-07-23T10:44:15Z</time>
      </trkpt>
      <trkpt lat="44.25661" lon="6.73541">
        <ele>2440.92</ele>
        <time>2020-07-23T10:44:28Z</time>
      </trkpt>
      <trkpt lat="44.25661" lon="6.73529">
        <ele>2441.89</ele>
        <time>2020-07-23T10:44:42Z</time>
      </trkpt>
      <trkpt lat="44.25658" lon="6.73525">
        <ele>2441.89</ele>
        <time>2020-07-23T10:44:54Z</time>
      </trkpt>
      <trkpt lat="44.25657" lon="6.73517">
        <ele>2441.41</ele>
        <time>2020-07-23T10:45:12Z</time>
      </trkpt>
      <trkpt lat="44.25657" lon="6.73503">
        <ele>2443.33</ele>
        <time>2020-07-23T10:45:26Z</time>
      </trkpt>
      <trkpt lat="44.25661" lon="6.73489">
        <ele>2445.25</ele>
        <time>2020-07-23T10:45:39Z</time>
      </trkpt>
      <trkpt lat="44.25668" lon="6.7348">
        <ele>2446.21</ele>
        <time>2020-07-23T10:45:52Z</time>
      </trkpt>
      <trkpt lat="44.25669" lon="6.73478">
        <ele>2445.73</ele>
        <time>2020-07-23T10:46:04Z</time>
      </trkpt>
      <trkpt lat="44.25673" lon="6.73474">
        <ele>2446.21</ele>
        <time>2020-07-23T10:46:19Z</time>
      </trkpt>
      <trkpt lat="44.25679" lon="6.73467">
        <ele>2448.62</ele>
        <time>2020-07-23T10:46:34Z</time>
      </trkpt>
      <trkpt lat="44.25683" lon="6.73448">
        <ele>2450.06</ele>
        <time>2020-07-23T10:46:50Z</time>
      </trkpt>
      <trkpt lat="44.25688" lon="6.7344">
        <ele>2451.5</ele>
        <time>2020-07-23T10:47:03Z</time>
      </trkpt>
      <trkpt lat="44.25689" lon="6.73435">
        <ele>2453.9</ele>
        <time>2020-07-23T10:47:18Z</time>
      </trkpt>
      <trkpt lat="44.25693" lon="6.73431">
        <ele>2454.86</ele>
        <time>2020-07-23T10:47:30Z</time>
      </trkpt>
      <trkpt lat="44.25696" lon="6.73422">
        <ele>2455.34</ele>
        <time>2020-07-23T10:47:43Z</time>
      </trkpt>
      <trkpt lat="44.25696" lon="6.73419">
        <ele>2456.31</ele>
        <time>2020-07-23T10:47:56Z</time>
      </trkpt>
      <trkpt lat="44.25698" lon="6.73418">
        <ele>2454.86</ele>
        <time>2020-07-23T10:48:21Z</time>
      </trkpt>
      <trkpt lat="44.25701" lon="6.73405">
        <ele>2458.23</ele>
        <time>2020-07-23T10:48:36Z</time>
      </trkpt>
      <trkpt lat="44.25707" lon="6.73393">
        <ele>2460.15</ele>
        <time>2020-07-23T10:48:50Z</time>
      </trkpt>
      <trkpt lat="44.25714" lon="6.7338">
        <ele>2462.55</ele>
        <time>2020-07-23T10:49:06Z</time>
      </trkpt>
      <trkpt lat="44.25719" lon="6.7337">
        <ele>2464</ele>
        <time>2020-07-23T10:49:20Z</time>
      </trkpt>
      <trkpt lat="44.25725" lon="6.73357">
        <ele>2465.92</ele>
        <time>2020-07-23T10:49:34Z</time>
      </trkpt>
      <trkpt lat="44.25731" lon="6.73347">
        <ele>2467.84</ele>
        <time>2020-07-23T10:49:48Z</time>
      </trkpt>
      <trkpt lat="44.25736" lon="6.73341">
        <ele>2469.76</ele>
        <time>2020-07-23T10:50:00Z</time>
      </trkpt>
      <trkpt lat="44.25743" lon="6.73332">
        <ele>2471.69</ele>
        <time>2020-07-23T10:50:14Z</time>
      </trkpt>
      <trkpt lat="44.25748" lon="6.73325">
        <ele>2472.65</ele>
        <time>2020-07-23T10:50:27Z</time>
      </trkpt>
      <trkpt lat="44.25754" lon="6.73318">
        <ele>2474.09</ele>
        <time>2020-07-23T10:50:40Z</time>
      </trkpt>
      <trkpt lat="44.25758" lon="6.73307">
        <ele>2476.01</ele>
        <time>2020-07-23T10:50:54Z</time>
      </trkpt>
      <trkpt lat="44.25763" lon="6.73297">
        <ele>2477.45</ele>
        <time>2020-07-23T10:51:07Z</time>
      </trkpt>
      <trkpt lat="44.25768" lon="6.73292">
        <ele>2480.34</ele>
        <time>2020-07-23T10:51:21Z</time>
      </trkpt>
      <trkpt lat="44.25775" lon="6.73284">
        <ele>2481.78</ele>
        <time>2020-07-23T10:51:34Z</time>
      </trkpt>
      <trkpt lat="44.25774" lon="6.7327">
        <ele>2483.22</ele>
        <time>2020-07-23T10:51:48Z</time>
      </trkpt>
      <trkpt lat="44.25767" lon="6.73262">
        <ele>2484.18</ele>
        <time>2020-07-23T10:52:02Z</time>
      </trkpt>
      <trkpt lat="44.25761" lon="6.73256">
        <ele>2484.66</ele>
        <time>2020-07-23T10:52:11Z</time>
      </trkpt>
      <trkpt lat="44.2576" lon="6.73246">
        <ele>2485.15</ele>
        <time>2020-07-23T10:52:24Z</time>
      </trkpt>
      <trkpt lat="44.25763" lon="6.73241">
        <ele>2487.55</ele>
        <time>2020-07-23T10:52:37Z</time>
      </trkpt>
      <trkpt lat="44.25769" lon="6.73235">
        <ele>2489.95</ele>
        <time>2020-07-23T10:52:49Z</time>
      </trkpt>
      <trkpt lat="44.25771" lon="6.73233">
        <ele>2490.43</ele>
        <time>2020-07-23T10:53:00Z</time>
      </trkpt>
      <trkpt lat="44.25778" lon="6.73226">
        <ele>2491.39</ele>
        <time>2020-07-23T10:53:12Z</time>
      </trkpt>
      <trkpt lat="44.25778" lon="6.73224">
        <ele>2491.87</ele>
        <time>2020-07-23T10:53:16Z</time>
      </trkpt>
      <trkpt lat="44.25774" lon="6.73214">
        <ele>2492.84</ele>
        <time>2020-07-23T10:53:30Z</time>
      </trkpt>
      <trkpt lat="44.25767" lon="6.73208">
        <ele>2494.28</ele>
        <time>2020-07-23T10:53:41Z</time>
      </trkpt>
      <trkpt lat="44.25757" lon="6.73197">
        <ele>2496.2</ele>
        <time>2020-07-23T10:53:58Z</time>
      </trkpt>
      <trkpt lat="44.25749" lon="6.73195">
        <ele>2498.12</ele>
        <time>2020-07-23T10:54:12Z</time>
      </trkpt>
      <trkpt lat="44.25742" lon="6.73195">
        <ele>2500.05</ele>
        <time>2020-07-23T10:54:26Z</time>
      </trkpt>
      <trkpt lat="44.25742" lon="6.73195">
        <ele>2498.6</ele>
        <time>2020-07-23T10:54:47Z</time>
      </trkpt>
      <trkpt lat="44.25743" lon="6.73191">
        <ele>2499.57</ele>
        <time>2020-07-23T10:55:06Z</time>
      </trkpt>
      <trkpt lat="44.25742" lon="6.73178">
        <ele>2501.01</ele>
        <time>2020-07-23T10:55:20Z</time>
      </trkpt>
      <trkpt lat="44.25738" lon="6.73165">
        <ele>2502.93</ele>
        <time>2020-07-23T10:55:34Z</time>
      </trkpt>
      <trkpt lat="44.25735" lon="6.73155">
        <ele>2504.85</ele>
        <time>2020-07-23T10:55:44Z</time>
      </trkpt>
      <trkpt lat="44.25735" lon="6.7315">
        <ele>2504.85</ele>
        <time>2020-07-23T10:55:59Z</time>
      </trkpt>
      <trkpt lat="44.25732" lon="6.7314">
        <ele>2505.81</ele>
        <time>2020-07-23T10:56:12Z</time>
      </trkpt>
      <trkpt lat="44.25723" lon="6.73123">
        <ele>2506.77</ele>
        <time>2020-07-23T10:56:28Z</time>
      </trkpt>
      <trkpt lat="44.25718" lon="6.73112">
        <ele>2507.26</ele>
        <time>2020-07-23T10:56:41Z</time>
      </trkpt>
      <trkpt lat="44.25715" lon="6.73106">
        <ele>2508.7</ele>
        <time>2020-07-23T10:56:55Z</time>
      </trkpt>
      <trkpt lat="44.25711" lon="6.73097">
        <ele>2510.62</ele>
        <time>2020-07-23T10:57:08Z</time>
      </trkpt>
      <trkpt lat="44.25706" lon="6.73091">
        <ele>2511.1</ele>
        <time>2020-07-23T10:57:21Z</time>
      </trkpt>
      <trkpt lat="44.25701" lon="6.73082">
        <ele>2512.06</ele>
        <time>2020-07-23T10:57:36Z</time>
      </trkpt>
      <trkpt lat="44.25696" lon="6.73072">
        <ele>2512.54</ele>
        <time>2020-07-23T10:57:48Z</time>
      </trkpt>
      <trkpt lat="44.25689" lon="6.73063">
        <ele>2512.54</ele>
        <time>2020-07-23T10:58:02Z</time>
      </trkpt>
      <trkpt lat="44.25681" lon="6.73055">
        <ele>2513.98</ele>
        <time>2020-07-23T10:58:17Z</time>
      </trkpt>
      <trkpt lat="44.25679" lon="6.73053">
        <ele>2514.47</ele>
        <time>2020-07-23T10:58:20Z</time>
      </trkpt>
      <trkpt lat="44.25673" lon="6.73045">
        <ele>2515.43</ele>
        <time>2020-07-23T10:58:32Z</time>
      </trkpt>
      <trkpt lat="44.25667" lon="6.73034">
        <ele>2516.39</ele>
        <time>2020-07-23T10:58:46Z</time>
      </trkpt>
      <trkpt lat="44.25663" lon="6.73026">
        <ele>2518.31</ele>
        <time>2020-07-23T10:58:59Z</time>
      </trkpt>
      <trkpt lat="44.25659" lon="6.73019">
        <ele>2519.75</ele>
        <time>2020-07-23T10:59:10Z</time>
      </trkpt>
      <trkpt lat="44.25656" lon="6.73014">
        <ele>2519.75</ele>
        <time>2020-07-23T10:59:21Z</time>
      </trkpt>
      <trkpt lat="44.25655" lon="6.73013">
        <ele>2519.27</ele>
        <time>2020-07-23T10:59:39Z</time>
      </trkpt>
      <trkpt lat="44.25654" lon="6.73008">
        <ele>2519.75</ele>
        <time>2020-07-23T11:00:01Z</time>
      </trkpt>
      <trkpt lat="44.25648" lon="6.73">
        <ele>2521.19</ele>
        <time>2020-07-23T11:00:13Z</time>
      </trkpt>
      <trkpt lat="44.25644" lon="6.72987">
        <ele>2522.16</ele>
        <time>2020-07-23T11:00:27Z</time>
      </trkpt>
      <trkpt lat="44.25643" lon="6.72973">
        <ele>2522.64</ele>
        <time>2020-07-23T11:00:41Z</time>
      </trkpt>
      <trkpt lat="44.25645" lon="6.72965">
        <ele>2524.56</ele>
        <time>2020-07-23T11:00:54Z</time>
      </trkpt>
      <trkpt lat="44.25646" lon="6.72957">
        <ele>2526.96</ele>
        <time>2020-07-23T11:01:07Z</time>
      </trkpt>
      <trkpt lat="44.2565" lon="6.72943">
        <ele>2527.44</ele>
        <time>2020-07-23T11:01:20Z</time>
      </trkpt>
      <trkpt lat="44.25652" lon="6.72932">
        <ele>2527.44</ele>
        <time>2020-07-23T11:01:33Z</time>
      </trkpt>
      <trkpt lat="44.25654" lon="6.72927">
        <ele>2527.92</ele>
        <time>2020-07-23T11:01:45Z</time>
      </trkpt>
      <trkpt lat="44.25655" lon="6.7292">
        <ele>2529.85</ele>
        <time>2020-07-23T11:01:55Z</time>
      </trkpt>
      <trkpt lat="44.25657" lon="6.72913">
        <ele>2529.85</ele>
        <time>2020-07-23T11:02:03Z</time>
      </trkpt>
      <trkpt lat="44.25661" lon="6.72906">
        <ele>2530.81</ele>
        <time>2020-07-23T11:02:18Z</time>
      </trkpt>
      <trkpt lat="44.25662" lon="6.72897">
        <ele>2533.69</ele>
        <time>2020-07-23T11:02:29Z</time>
      </trkpt>
      <trkpt lat="44.25664" lon="6.72889">
        <ele>2533.69</ele>
        <time>2020-07-23T11:02:43Z</time>
      </trkpt>
      <trkpt lat="44.25664" lon="6.72894">
        <ele>2534.17</ele>
        <time>2020-07-23T11:03:00Z</time>
      </trkpt>
      <trkpt lat="44.25665" lon="6.72881">
        <ele>2534.65</ele>
        <time>2020-07-23T11:03:12Z</time>
      </trkpt>
      <trkpt lat="44.25671" lon="6.72871">
        <ele>2535.61</ele>
        <time>2020-07-23T11:03:25Z</time>
      </trkpt>
      <trkpt lat="44.25676" lon="6.72864">
        <ele>2537.06</ele>
        <time>2020-07-23T11:03:38Z</time>
      </trkpt>
      <trkpt lat="44.25678" lon="6.72863">
        <ele>2537.54</ele>
        <time>2020-07-23T11:03:41Z</time>
      </trkpt>
      <trkpt lat="44.25679" lon="6.72861">
        <ele>2537.54</ele>
        <time>2020-07-23T11:03:43Z</time>
      </trkpt>
      <trkpt lat="44.25683" lon="6.72846">
        <ele>2537.54</ele>
        <time>2020-07-23T11:03:57Z</time>
      </trkpt>
      <trkpt lat="44.2568" lon="6.72841">
        <ele>2539.46</ele>
        <time>2020-07-23T11:04:09Z</time>
      </trkpt>
      <trkpt lat="44.25676" lon="6.72831">
        <ele>2540.42</ele>
        <time>2020-07-23T11:04:21Z</time>
      </trkpt>
      <trkpt lat="44.25675" lon="6.72824">
        <ele>2540.9</ele>
        <time>2020-07-23T11:04:33Z</time>
      </trkpt>
      <trkpt lat="44.25676" lon="6.72821">
        <ele>2541.86</ele>
        <time>2020-07-23T11:04:50Z</time>
      </trkpt>
      <trkpt lat="44.25675" lon="6.72816">
        <ele>2541.86</ele>
        <time>2020-07-23T11:05:01Z</time>
      </trkpt>
      <trkpt lat="44.25674" lon="6.72816">
        <ele>2541.86</ele>
        <time>2020-07-23T11:05:18Z</time>
      </trkpt>
      <trkpt lat="44.25675" lon="6.72814">
        <ele>2542.34</ele>
        <time>2020-07-23T11:05:24Z</time>
      </trkpt>
      <trkpt lat="44.25681" lon="6.72799">
        <ele>2544.75</ele>
        <time>2020-07-23T11:05:39Z</time>
      </trkpt>
      <trkpt lat="44.25682" lon="6.72785">
        <ele>2545.71</ele>
        <time>2020-07-23T11:05:52Z</time>
      </trkpt>
      <trkpt lat="44.25683" lon="6.72773">
        <ele>2546.67</ele>
        <time>2020-07-23T11:06:04Z</time>
      </trkpt>
      <trkpt lat="44.25682" lon="6.72769">
        <ele>2546.67</ele>
        <time>2020-07-23T11:06:17Z</time>
      </trkpt>
      <trkpt lat="44.25682" lon="6.72765">
        <ele>2547.15</ele>
        <time>2020-07-23T11:06:29Z</time>
      </trkpt>
      <trkpt lat="44.25684" lon="6.72763">
        <ele>2547.63</ele>
        <time>2020-07-23T11:06:41Z</time>
      </trkpt>
      <trkpt lat="44.25683" lon="6.7276">
        <ele>2546.19</ele>
        <time>2020-07-23T11:07:02Z</time>
      </trkpt>
      <trkpt lat="44.25683" lon="6.72755">
        <ele>2547.15</ele>
        <time>2020-07-23T11:07:17Z</time>
      </trkpt>
      <trkpt lat="44.25685" lon="6.72743">
        <ele>2547.63</ele>
        <time>2020-07-23T11:07:32Z</time>
      </trkpt>
      <trkpt lat="44.25685" lon="6.72737">
        <ele>2547.15</ele>
        <time>2020-07-23T11:07:45Z</time>
      </trkpt>
      <trkpt lat="44.25686" lon="6.72738">
        <ele>2547.15</ele>
        <time>2020-07-23T11:08:06Z</time>
      </trkpt>
      <trkpt lat="44.25687" lon="6.72737">
        <ele>2547.15</ele>
        <time>2020-07-23T11:08:32Z</time>
      </trkpt>
      <trkpt lat="44.25687" lon="6.72733">
        <ele>2547.63</ele>
        <time>2020-07-23T11:08:36Z</time>
      </trkpt>
      <trkpt lat="44.25687" lon="6.72712">
        <ele>2549.55</ele>
        <time>2020-07-23T11:08:52Z</time>
      </trkpt>
      <trkpt lat="44.2568" lon="6.72707">
        <ele>2551.96</ele>
        <time>2020-07-23T11:09:04Z</time>
      </trkpt>
      <trkpt lat="44.25673" lon="6.72702">
        <ele>2554.36</ele>
        <time>2020-07-23T11:09:16Z</time>
      </trkpt>
      <trkpt lat="44.25677" lon="6.72697">
        <ele>2555.32</ele>
        <time>2020-07-23T11:09:28Z</time>
      </trkpt>
      <trkpt lat="44.25682" lon="6.72695">
        <ele>2557.73</ele>
        <time>2020-07-23T11:09:40Z</time>
      </trkpt>
      <trkpt lat="44.2569" lon="6.72688">
        <ele>2558.21</ele>
        <time>2020-07-23T11:09:54Z</time>
      </trkpt>
      <trkpt lat="44.25694" lon="6.7268">
        <ele>2560.61</ele>
        <time>2020-07-23T11:10:07Z</time>
      </trkpt>
      <trkpt lat="44.25696" lon="6.72671">
        <ele>2562.05</ele>
        <time>2020-07-23T11:10:18Z</time>
      </trkpt>
      <trkpt lat="44.25701" lon="6.72668">
        <ele>2563.01</ele>
        <time>2020-07-23T11:10:29Z</time>
      </trkpt>
      <trkpt lat="44.25709" lon="6.72669">
        <ele>2565.9</ele>
        <time>2020-07-23T11:10:40Z</time>
      </trkpt>
      <trkpt lat="44.25703" lon="6.72663">
        <ele>2567.82</ele>
        <time>2020-07-23T11:10:52Z</time>
      </trkpt>
      <trkpt lat="44.25696" lon="6.72657">
        <ele>2568.3</ele>
        <time>2020-07-23T11:11:05Z</time>
      </trkpt>
      <trkpt lat="44.25689" lon="6.7265">
        <ele>2569.74</ele>
        <time>2020-07-23T11:11:19Z</time>
      </trkpt>
      <trkpt lat="44.25685" lon="6.72644">
        <ele>2570.22</ele>
        <time>2020-07-23T11:11:31Z</time>
      </trkpt>
      <trkpt lat="44.25677" lon="6.72637">
        <ele>2570.7</ele>
        <time>2020-07-23T11:11:43Z</time>
      </trkpt>
      <trkpt lat="44.25673" lon="6.72628">
        <ele>2573.59</ele>
        <time>2020-07-23T11:11:58Z</time>
      </trkpt>
      <trkpt lat="44.25671" lon="6.72622">
        <ele>2574.55</ele>
        <time>2020-07-23T11:12:08Z</time>
      </trkpt>
      <trkpt lat="44.25666" lon="6.72616">
        <ele>2576.95</ele>
        <time>2020-07-23T11:12:20Z</time>
      </trkpt>
      <trkpt lat="44.25662" lon="6.72611">
        <ele>2577.91</ele>
        <time>2020-07-23T11:12:31Z</time>
      </trkpt>
      <trkpt lat="44.25656" lon="6.72601">
        <ele>2577.91</ele>
        <time>2020-07-23T11:12:44Z</time>
      </trkpt>
      <trkpt lat="44.25649" lon="6.72595">
        <ele>2578.87</ele>
        <time>2020-07-23T11:12:57Z</time>
      </trkpt>
      <trkpt lat="44.25642" lon="6.72588">
        <ele>2580.8</ele>
        <time>2020-07-23T11:13:10Z</time>
      </trkpt>
      <trkpt lat="44.25634" lon="6.72583">
        <ele>2582.72</ele>
        <time>2020-07-23T11:13:22Z</time>
      </trkpt>
      <trkpt lat="44.25627" lon="6.72579">
        <ele>2583.2</ele>
        <time>2020-07-23T11:13:35Z</time>
      </trkpt>
      <trkpt lat="44.2562" lon="6.72577">
        <ele>2586.08</ele>
        <time>2020-07-23T11:13:47Z</time>
      </trkpt>
      <trkpt lat="44.25615" lon="6.72576">
        <ele>2585.6</ele>
        <time>2020-07-23T11:13:59Z</time>
      </trkpt>
      <trkpt lat="44.25609" lon="6.72575">
        <ele>2588.49</ele>
        <time>2020-07-23T11:14:12Z</time>
      </trkpt>
      <trkpt lat="44.25602" lon="6.72574">
        <ele>2591.37</ele>
        <time>2020-07-23T11:14:24Z</time>
      </trkpt>
      <trkpt lat="44.25594" lon="6.72575">
        <ele>2593.77</ele>
        <time>2020-07-23T11:14:37Z</time>
      </trkpt>
      <trkpt lat="44.25586" lon="6.72577">
        <ele>2596.66</ele>
        <time>2020-07-23T11:14:50Z</time>
      </trkpt>
      <trkpt lat="44.25578" lon="6.72579">
        <ele>2597.62</ele>
        <time>2020-07-23T11:15:03Z</time>
      </trkpt>
      <trkpt lat="44.25573" lon="6.72583">
        <ele>2599.54</ele>
        <time>2020-07-23T11:15:15Z</time>
      </trkpt>
      <trkpt lat="44.25569" lon="6.72586">
        <ele>2600.5</ele>
        <time>2020-07-23T11:15:28Z</time>
      </trkpt>
      <trkpt lat="44.25569" lon="6.7258">
        <ele>2599.06</ele>
        <time>2020-07-23T11:15:41Z</time>
      </trkpt>
      <trkpt lat="44.25566" lon="6.72578">
        <ele>2601.46</ele>
        <time>2020-07-23T11:15:54Z</time>
      </trkpt>
      <trkpt lat="44.2556" lon="6.72584">
        <ele>2602.91</ele>
        <time>2020-07-23T11:16:09Z</time>
      </trkpt>
      <trkpt lat="44.25556" lon="6.72591">
        <ele>2604.83</ele>
        <time>2020-07-23T11:16:24Z</time>
      </trkpt>
      <trkpt lat="44.2555" lon="6.72598">
        <ele>2604.83</ele>
        <time>2020-07-23T11:16:38Z</time>
      </trkpt>
      <trkpt lat="44.25547" lon="6.72599">
        <ele>2608.19</ele>
        <time>2020-07-23T11:16:49Z</time>
      </trkpt>
      <trkpt lat="44.25549" lon="6.72591">
        <ele>2607.71</ele>
        <time>2020-07-23T11:17:03Z</time>
      </trkpt>
      <trkpt lat="44.25551" lon="6.72579">
        <ele>2609.16</ele>
        <time>2020-07-23T11:17:15Z</time>
      </trkpt>
      <trkpt lat="44.25553" lon="6.72571">
        <ele>2610.12</ele>
        <time>2020-07-23T11:17:28Z</time>
      </trkpt>
      <trkpt lat="44.25555" lon="6.72561">
        <ele>2610.12</ele>
        <time>2020-07-23T11:17:41Z</time>
      </trkpt>
      <trkpt lat="44.25553" lon="6.72555">
        <ele>2612.52</ele>
        <time>2020-07-23T11:17:54Z</time>
      </trkpt>
      <trkpt lat="44.25549" lon="6.72557">
        <ele>2615.4</ele>
        <time>2020-07-23T11:18:05Z</time>
      </trkpt>
      <trkpt lat="44.25544" lon="6.72565">
        <ele>2618.29</ele>
        <time>2020-07-23T11:18:18Z</time>
      </trkpt>
      <trkpt lat="44.25539" lon="6.72572">
        <ele>2620.69</ele>
        <time>2020-07-23T11:18:33Z</time>
      </trkpt>
      <trkpt lat="44.25535" lon="6.72578">
        <ele>2621.65</ele>
        <time>2020-07-23T11:18:48Z</time>
      </trkpt>
      <trkpt lat="44.25533" lon="6.72581">
        <ele>2623.58</ele>
        <time>2020-07-23T11:19:00Z</time>
      </trkpt>
      <trkpt lat="44.2553" lon="6.72587">
        <ele>2626.46</ele>
        <time>2020-07-23T11:19:12Z</time>
      </trkpt>
      <trkpt lat="44.25529" lon="6.72587">
        <ele>2625.5</ele>
        <time>2020-07-23T11:19:35Z</time>
      </trkpt>
      <trkpt lat="44.25526" lon="6.72587">
        <ele>2625.98</ele>
        <time>2020-07-23T11:19:46Z</time>
      </trkpt>
      <trkpt lat="44.25525" lon="6.72583">
        <ele>2626.94</ele>
        <time>2020-07-23T11:19:58Z</time>
      </trkpt>
      <trkpt lat="44.25523" lon="6.72577">
        <ele>2627.42</ele>
        <time>2020-07-23T11:20:12Z</time>
      </trkpt>
      <trkpt lat="44.25522" lon="6.72579">
        <ele>2630.3</ele>
        <time>2020-07-23T11:20:26Z</time>
      </trkpt>
      <trkpt lat="44.25519" lon="6.72584">
        <ele>2633.67</ele>
        <time>2020-07-23T11:20:39Z</time>
      </trkpt>
      <trkpt lat="44.25516" lon="6.72588">
        <ele>2636.07</ele>
        <time>2020-07-23T11:20:49Z</time>
      </trkpt>
      <trkpt lat="44.25516" lon="6.72584">
        <ele>2635.59</ele>
        <time>2020-07-23T11:21:00Z</time>
      </trkpt>
      <trkpt lat="44.25514" lon="6.72573">
        <ele>2636.07</ele>
        <time>2020-07-23T11:21:15Z</time>
      </trkpt>
      <trkpt lat="44.25514" lon="6.72569">
        <ele>2635.59</ele>
        <time>2020-07-23T11:21:26Z</time>
      </trkpt>
      <trkpt lat="44.25515" lon="6.72563">
        <ele>2636.55</ele>
        <time>2020-07-23T11:21:44Z</time>
      </trkpt>
      <trkpt lat="44.25516" lon="6.72557">
        <ele>2638.96</ele>
        <time>2020-07-23T11:21:57Z</time>
      </trkpt>
      <trkpt lat="44.25518" lon="6.72551">
        <ele>2639.44</ele>
        <time>2020-07-23T11:22:07Z</time>
      </trkpt>
      <trkpt lat="44.25519" lon="6.72547">
        <ele>2639.92</ele>
        <time>2020-07-23T11:22:12Z</time>
      </trkpt>
      <trkpt lat="44.25518" lon="6.72538">
        <ele>2642.32</ele>
        <time>2020-07-23T11:22:24Z</time>
      </trkpt>
      <trkpt lat="44.25519" lon="6.72534">
        <ele>2640.88</ele>
        <time>2020-07-23T11:22:41Z</time>
      </trkpt>
      <trkpt lat="44.25519" lon="6.72535">
        <ele>2640.4</ele>
        <time>2020-07-23T11:22:57Z</time>
      </trkpt>
      <trkpt lat="44.25517" lon="6.72535">
        <ele>2639.92</ele>
        <time>2020-07-23T11:23:03Z</time>
      </trkpt>
      <trkpt lat="44.25517" lon="6.72537">
        <ele>2639.44</ele>
        <time>2020-07-23T11:23:15Z</time>
      </trkpt>
      <trkpt lat="44.25514" lon="6.7254">
        <ele>2640.4</ele>
        <time>2020-07-23T11:23:25Z</time>
      </trkpt>
      <trkpt lat="44.25511" lon="6.72548">
        <ele>2642.32</ele>
        <time>2020-07-23T11:23:38Z</time>
      </trkpt>
      <trkpt lat="44.25506" lon="6.72555">
        <ele>2643.28</ele>
        <time>2020-07-23T11:23:52Z</time>
      </trkpt>
      <trkpt lat="44.25502" lon="6.72563">
        <ele>2647.13</ele>
        <time>2020-07-23T11:24:05Z</time>
      </trkpt>
      <trkpt lat="44.25495" lon="6.72569">
        <ele>2650.01</ele>
        <time>2020-07-23T11:24:18Z</time>
      </trkpt>
      <trkpt lat="44.25494" lon="6.72569">
        <ele>2651.45</ele>
        <time>2020-07-23T11:24:40Z</time>
      </trkpt>
      <trkpt lat="44.25487" lon="6.72578">
        <ele>2654.34</ele>
        <time>2020-07-23T11:24:53Z</time>
      </trkpt>
      <trkpt lat="44.25479" lon="6.72582">
        <ele>2654.82</ele>
        <time>2020-07-23T11:25:05Z</time>
      </trkpt>
      <trkpt lat="44.25473" lon="6.72585">
        <ele>2654.82</ele>
        <time>2020-07-23T11:25:18Z</time>
      </trkpt>
      <trkpt lat="44.25473" lon="6.72586">
        <ele>2655.78</ele>
        <time>2020-07-23T11:25:39Z</time>
      </trkpt>
      <trkpt lat="44.25473" lon="6.72586">
        <ele>2655.78</ele>
        <time>2020-07-23T11:25:40Z</time>
      </trkpt>
      <trkpt lat="44.25458" lon="6.72591">
        <ele>2657.22</ele>
        <time>2020-07-23T11:25:57Z</time>
      </trkpt>
      <trkpt lat="44.25446" lon="6.72595">
        <ele>2660.11</ele>
        <time>2020-07-23T11:26:14Z</time>
      </trkpt>
      <trkpt lat="44.25438" lon="6.72598">
        <ele>2662.51</ele>
        <time>2020-07-23T11:26:26Z</time>
      </trkpt>
      <trkpt lat="44.25433" lon="6.72599">
        <ele>2664.43</ele>
        <time>2020-07-23T11:26:38Z</time>
      </trkpt>
      <trkpt lat="44.25433" lon="6.72599">
        <ele>2664.43</ele>
        <time>2020-07-23T11:27:02Z</time>
      </trkpt>
      <trkpt lat="44.25433" lon="6.72598">
        <ele>2664.43</ele>
        <time>2020-07-23T11:27:03Z</time>
      </trkpt>
      <trkpt lat="44.25419" lon="6.72596">
        <ele>2663.95</ele>
        <time>2020-07-23T11:27:19Z</time>
      </trkpt>
      <trkpt lat="44.25415" lon="6.72597">
        <ele>2664.43</ele>
        <time>2020-07-23T11:27:23Z</time>
      </trkpt>
      <trkpt lat="44.25406" lon="6.72602">
        <ele>2665.87</ele>
        <time>2020-07-23T11:27:37Z</time>
      </trkpt>
      <trkpt lat="44.25405" lon="6.72598">
        <ele>2664.43</ele>
        <time>2020-07-23T11:27:56Z</time>
      </trkpt>
      <trkpt lat="44.25405" lon="6.72597">
        <ele>2662.03</ele>
        <time>2020-07-23T11:28:11Z</time>
      </trkpt>
      <trkpt lat="44.25404" lon="6.72598">
        <ele>2662.03</ele>
        <time>2020-07-23T11:28:26Z</time>
      </trkpt>
      <trkpt lat="44.25394" lon="6.72601">
        <ele>2663.47</ele>
        <time>2020-07-23T11:28:39Z</time>
      </trkpt>
      <trkpt lat="44.25386" lon="6.726">
        <ele>2666.83</ele>
        <time>2020-07-23T11:28:52Z</time>
      </trkpt>
      <trkpt lat="44.25377" lon="6.72595">
        <ele>2666.83</ele>
        <time>2020-07-23T11:29:03Z</time>
      </trkpt>
      <trkpt lat="44.25374" lon="6.72588">
        <ele>2667.31</ele>
        <time>2020-07-23T11:29:19Z</time>
      </trkpt>
      <trkpt lat="44.25365" lon="6.72587">
        <ele>2662.99</ele>
        <time>2020-07-23T11:29:33Z</time>
      </trkpt>
      <trkpt lat="44.25353" lon="6.72579">
        <ele>2664.43</ele>
        <time>2020-07-23T11:29:48Z</time>
      </trkpt>
      <trkpt lat="44.2535" lon="6.72576">
        <ele>2663.47</ele>
        <time>2020-07-23T11:29:53Z</time>
      </trkpt>
      <trkpt lat="44.25338" lon="6.7257">
        <ele>2663.47</ele>
        <time>2020-07-23T11:30:07Z</time>
      </trkpt>
      <trkpt lat="44.25339" lon="6.72568">
        <ele>2660.59</ele>
        <time>2020-07-23T11:30:29Z</time>
      </trkpt>
      <trkpt lat="44.25332" lon="6.72566">
        <ele>2659.14</ele>
        <time>2020-07-23T11:30:41Z</time>
      </trkpt>
      <trkpt lat="44.25318" lon="6.72557">
        <ele>2660.11</ele>
        <time>2020-07-23T11:30:57Z</time>
      </trkpt>
      <trkpt lat="44.25312" lon="6.72557">
        <ele>2659.14</ele>
        <time>2020-07-23T11:31:03Z</time>
      </trkpt>
      <trkpt lat="44.25301" lon="6.72553">
        <ele>2658.18</ele>
        <time>2020-07-23T11:31:16Z</time>
      </trkpt>
      <trkpt lat="44.2529" lon="6.72549">
        <ele>2656.74</ele>
        <time>2020-07-23T11:31:31Z</time>
      </trkpt>
      <trkpt lat="44.25287" lon="6.72547">
        <ele>2657.22</ele>
        <time>2020-07-23T11:31:43Z</time>
      </trkpt>
      <trkpt lat="44.25276" lon="6.72541">
        <ele>2655.78</ele>
        <time>2020-07-23T11:31:56Z</time>
      </trkpt>
      <trkpt lat="44.25269" lon="6.7254">
        <ele>2654.34</ele>
        <time>2020-07-23T11:32:02Z</time>
      </trkpt>
      <trkpt lat="44.25262" lon="6.7254">
        <ele>2654.34</ele>
        <time>2020-07-23T11:32:14Z</time>
      </trkpt>
      <trkpt lat="44.25256" lon="6.72534">
        <ele>2654.34</ele>
        <time>2020-07-23T11:32:28Z</time>
      </trkpt>
      <trkpt lat="44.25253" lon="6.72533">
        <ele>2654.34</ele>
        <time>2020-07-23T11:32:32Z</time>
      </trkpt>
      <trkpt lat="44.25242" lon="6.72521">
        <ele>2653.38</ele>
        <time>2020-07-23T11:32:48Z</time>
      </trkpt>
      <trkpt lat="44.25239" lon="6.72521">
        <ele>2653.38</ele>
        <time>2020-07-23T11:33:10Z</time>
      </trkpt>
      <trkpt lat="44.25232" lon="6.72512">
        <ele>2654.82</ele>
        <time>2020-07-23T11:33:23Z</time>
      </trkpt>
      <trkpt lat="44.25231" lon="6.72511">
        <ele>2654.34</ele>
        <time>2020-07-23T11:33:25Z</time>
      </trkpt>
      <trkpt lat="44.25219" lon="6.72497">
        <ele>2653.86</ele>
        <time>2020-07-23T11:33:42Z</time>
      </trkpt>
      <trkpt lat="44.25215" lon="6.72493">
        <ele>2653.86</ele>
        <time>2020-07-23T11:33:47Z</time>
      </trkpt>
      <trkpt lat="44.25206" lon="6.72483">
        <ele>2654.82</ele>
        <time>2020-07-23T11:34:00Z</time>
      </trkpt>
      <trkpt lat="44.25197" lon="6.72476">
        <ele>2653.86</ele>
        <time>2020-07-23T11:34:12Z</time>
      </trkpt>
      <trkpt lat="44.25185" lon="6.72468">
        <ele>2653.86</ele>
        <time>2020-07-23T11:34:28Z</time>
      </trkpt>
      <trkpt lat="44.25177" lon="6.72463">
        <ele>2653.86</ele>
        <time>2020-07-23T11:34:42Z</time>
      </trkpt>
      <trkpt lat="44.2516" lon="6.72449">
        <ele>2653.86</ele>
        <time>2020-07-23T11:35:01Z</time>
      </trkpt>
      <trkpt lat="44.25145" lon="6.72445">
        <ele>2653.38</ele>
        <time>2020-07-23T11:35:17Z</time>
      </trkpt>
      <trkpt lat="44.25133" lon="6.72441">
        <ele>2653.86</ele>
        <time>2020-07-23T11:35:31Z</time>
      </trkpt>
      <trkpt lat="44.2512" lon="6.72435">
        <ele>2654.34</ele>
        <time>2020-07-23T11:35:47Z</time>
      </trkpt>
      <trkpt lat="44.25108" lon="6.72429">
        <ele>2654.34</ele>
        <time>2020-07-23T11:36:01Z</time>
      </trkpt>
      <trkpt lat="44.25107" lon="6.72429">
        <ele>2654.82</ele>
        <time>2020-07-23T11:36:02Z</time>
      </trkpt>
      <trkpt lat="44.25097" lon="6.72432">
        <ele>2654.34</ele>
        <time>2020-07-23T11:36:13Z</time>
      </trkpt>
      <trkpt lat="44.25089" lon="6.72434">
        <ele>2653.86</ele>
        <time>2020-07-23T11:36:21Z</time>
      </trkpt>
      <trkpt lat="44.25086" lon="6.72435">
        <ele>2653.86</ele>
        <time>2020-07-23T11:36:25Z</time>
      </trkpt>
      <trkpt lat="44.25071" lon="6.72442">
        <ele>2652.9</ele>
        <time>2020-07-23T11:36:42Z</time>
      </trkpt>
      <trkpt lat="44.25067" lon="6.72443">
        <ele>2653.38</ele>
        <time>2020-07-23T11:36:46Z</time>
      </trkpt>
      <trkpt lat="44.25052" lon="6.72454">
        <ele>2652.9</ele>
        <time>2020-07-23T11:37:03Z</time>
      </trkpt>
      <trkpt lat="44.2505" lon="6.72457">
        <ele>2652.9</ele>
        <time>2020-07-23T11:37:06Z</time>
      </trkpt>
      <trkpt lat="44.25033" lon="6.72465">
        <ele>2652.9</ele>
        <time>2020-07-23T11:37:25Z</time>
      </trkpt>
      <trkpt lat="44.25023" lon="6.72474">
        <ele>2652.42</ele>
        <time>2020-07-23T11:37:40Z</time>
      </trkpt>
      <trkpt lat="44.25022" lon="6.72475">
        <ele>2652.9</ele>
        <time>2020-07-23T11:37:55Z</time>
      </trkpt>
      <trkpt lat="44.25022" lon="6.72474">
        <ele>2653.86</ele>
        <time>2020-07-23T11:38:22Z</time>
      </trkpt>
      <trkpt lat="44.2502" lon="6.72474">
        <ele>2653.38</ele>
        <time>2020-07-23T11:38:47Z</time>
      </trkpt>
      <trkpt lat="44.25019" lon="6.72475">
        <ele>2653.86</ele>
        <time>2020-07-23T11:39:10Z</time>
      </trkpt>
      <trkpt lat="44.25019" lon="6.72475">
        <ele>2653.38</ele>
        <time>2020-07-23T11:39:26Z</time>
      </trkpt>
      <trkpt lat="44.25009" lon="6.72488">
        <ele>2651.45</ele>
        <time>2020-07-23T11:39:43Z</time>
      </trkpt>
      <trkpt lat="44.2501" lon="6.72488">
        <ele>2649.53</ele>
        <time>2020-07-23T11:39:59Z</time>
      </trkpt>
      <trkpt lat="44.25004" lon="6.72496">
        <ele>2649.05</ele>
        <time>2020-07-23T11:40:13Z</time>
      </trkpt>
      <trkpt lat="44.24999" lon="6.72507">
        <ele>2647.61</ele>
        <time>2020-07-23T11:40:28Z</time>
      </trkpt>
      <trkpt lat="44.24987" lon="6.72514">
        <ele>2645.69</ele>
        <time>2020-07-23T11:40:44Z</time>
      </trkpt>
      <trkpt lat="44.24976" lon="6.72518">
        <ele>2642.8</ele>
        <time>2020-07-23T11:40:59Z</time>
      </trkpt>
      <trkpt lat="44.24968" lon="6.72523">
        <ele>2639.92</ele>
        <time>2020-07-23T11:41:10Z</time>
      </trkpt>
      <trkpt lat="44.24959" lon="6.72532">
        <ele>2639.92</ele>
        <time>2020-07-23T11:41:23Z</time>
      </trkpt>
      <trkpt lat="44.24957" lon="6.72533">
        <ele>2639.92</ele>
        <time>2020-07-23T11:41:25Z</time>
      </trkpt>
      <trkpt lat="44.24953" lon="6.72536">
        <ele>2638.96</ele>
        <time>2020-07-23T11:41:32Z</time>
      </trkpt>
      <trkpt lat="44.24945" lon="6.72545">
        <ele>2638.96</ele>
        <time>2020-07-23T11:41:46Z</time>
      </trkpt>
      <trkpt lat="44.24938" lon="6.72557">
        <ele>2637.99</ele>
        <time>2020-07-23T11:42:03Z</time>
      </trkpt>
      <trkpt lat="44.24933" lon="6.72575">
        <ele>2633.67</ele>
        <time>2020-07-23T11:42:21Z</time>
      </trkpt>
      <trkpt lat="44.24929" lon="6.7258">
        <ele>2632.71</ele>
        <time>2020-07-23T11:42:34Z</time>
      </trkpt>
      <trkpt lat="44.24925" lon="6.72586">
        <ele>2631.75</ele>
        <time>2020-07-23T11:42:48Z</time>
      </trkpt>
      <trkpt lat="44.24921" lon="6.72605">
        <ele>2628.86</ele>
        <time>2020-07-23T11:43:05Z</time>
      </trkpt>
      <trkpt lat="44.24917" lon="6.72618">
        <ele>2627.42</ele>
        <time>2020-07-23T11:43:17Z</time>
      </trkpt>
      <trkpt lat="44.24916" lon="6.72621">
        <ele>2627.42</ele>
        <time>2020-07-23T11:43:19Z</time>
      </trkpt>
      <trkpt lat="44.24917" lon="6.72635">
        <ele>2625.98</ele>
        <time>2020-07-23T11:43:34Z</time>
      </trkpt>
      <trkpt lat="44.24911" lon="6.72635">
        <ele>2626.94</ele>
        <time>2020-07-23T11:43:46Z</time>
      </trkpt>
      <trkpt lat="44.24908" lon="6.72634">
        <ele>2626.46</ele>
        <time>2020-07-23T11:43:59Z</time>
      </trkpt>
      <trkpt lat="44.24907" lon="6.72633">
        <ele>2625.5</ele>
        <time>2020-07-23T11:44:16Z</time>
      </trkpt>
      <trkpt lat="44.24907" lon="6.7263">
        <ele>2625.02</ele>
        <time>2020-07-23T11:44:35Z</time>
      </trkpt>
      <trkpt lat="44.24907" lon="6.7263">
        <ele>2625.5</ele>
        <time>2020-07-23T11:44:48Z</time>
      </trkpt>
      <trkpt lat="44.24908" lon="6.7263">
        <ele>2625.5</ele>
        <time>2020-07-23T11:45:04Z</time>
      </trkpt>
      <trkpt lat="44.24908" lon="6.72629">
        <ele>2624.06</ele>
        <time>2020-07-23T11:45:23Z</time>
      </trkpt>
      <trkpt lat="44.24908" lon="6.72628">
        <ele>2624.06</ele>
        <time>2020-07-23T11:45:41Z</time>
      </trkpt>
      <trkpt lat="44.24908" lon="6.7263">
        <ele>2625.02</ele>
        <time>2020-07-23T11:46:09Z</time>
      </trkpt>
      <trkpt lat="44.24907" lon="6.72628">
        <ele>2625.5</ele>
        <time>2020-07-23T11:46:49Z</time>
      </trkpt>
      <trkpt lat="44.24906" lon="6.7263">
        <ele>2624.54</ele>
        <time>2020-07-23T11:47:31Z</time>
      </trkpt>
      <trkpt lat="44.24908" lon="6.72629">
        <ele>2624.06</ele>
        <time>2020-07-23T11:48:10Z</time>
      </trkpt>
      <trkpt lat="44.2491" lon="6.72631">
        <ele>2625.5</ele>
        <time>2020-07-23T11:48:42Z</time>
      </trkpt>
      <trkpt lat="44.24911" lon="6.72629">
        <ele>2626.94</ele>
        <time>2020-07-23T11:49:21Z</time>
      </trkpt>
      <trkpt lat="44.24909" lon="6.72629">
        <ele>2622.61</ele>
        <time>2020-07-23T11:49:41Z</time>
      </trkpt>
      <trkpt lat="44.24908" lon="6.72631">
        <ele>2619.25</ele>
        <time>2020-07-23T11:50:12Z</time>
      </trkpt>
      <trkpt lat="44.24908" lon="6.72632">
        <ele>2617.81</ele>
        <time>2020-07-23T11:50:54Z</time>
      </trkpt>
      <trkpt lat="44.24912" lon="6.72636">
        <ele>2611.08</ele>
        <time>2020-07-23T11:51:29Z</time>
      </trkpt>
      <trkpt lat="44.24921" lon="6.7264">
        <ele>2603.87</ele>
        <time>2020-07-23T11:52:07Z</time>
      </trkpt>
      <trkpt lat="44.24928" lon="6.72641">
        <ele>2600.5</ele>
        <time>2020-07-23T11:52:37Z</time>
      </trkpt>
      <trkpt lat="44.24934" lon="6.7264">
        <ele>2602.91</ele>
        <time>2020-07-23T11:53:16Z</time>
      </trkpt>
      <trkpt lat="44.24935" lon="6.72639">
        <ele>2605.31</ele>
        <time>2020-07-23T11:53:48Z</time>
      </trkpt>
      <trkpt lat="44.24935" lon="6.72636">
        <ele>2608.19</ele>
        <time>2020-07-23T11:54:16Z</time>
      </trkpt>
      <trkpt lat="44.24933" lon="6.72633">
        <ele>2611.08</ele>
        <time>2020-07-23T11:54:43Z</time>
      </trkpt>
      <trkpt lat="44.24929" lon="6.72629">
        <ele>2612.04</ele>
        <time>2020-07-23T11:55:16Z</time>
      </trkpt>
      <trkpt lat="44.24928" lon="6.72629">
        <ele>2614.44</ele>
        <time>2020-07-23T11:55:43Z</time>
      </trkpt>
      <trkpt lat="44.24925" lon="6.72629">
        <ele>2615.88</ele>
        <time>2020-07-23T11:56:10Z</time>
      </trkpt>
      <trkpt lat="44.24922" lon="6.72629">
        <ele>2618.29</ele>
        <time>2020-07-23T11:56:34Z</time>
      </trkpt>
      <trkpt lat="44.24921" lon="6.72628">
        <ele>2620.21</ele>
        <time>2020-07-23T11:57:07Z</time>
      </trkpt>
      <trkpt lat="44.24919" lon="6.72629">
        <ele>2621.17</ele>
        <time>2020-07-23T11:57:39Z</time>
      </trkpt>
      <trkpt lat="44.24918" lon="6.72628">
        <ele>2622.13</ele>
        <time>2020-07-23T11:58:06Z</time>
      </trkpt>
      <trkpt lat="44.2492" lon="6.72627">
        <ele>2624.54</ele>
        <time>2020-07-23T11:58:43Z</time>
      </trkpt>
      <trkpt lat="44.24922" lon="6.72626">
        <ele>2626.46</ele>
        <time>2020-07-23T11:59:19Z</time>
      </trkpt>
      <trkpt lat="44.24923" lon="6.72626">
        <ele>2627.9</ele>
        <time>2020-07-23T11:59:45Z</time>
      </trkpt>
      <trkpt lat="44.24923" lon="6.72625">
        <ele>2629.82</ele>
        <time>2020-07-23T12:00:12Z</time>
      </trkpt>
      <trkpt lat="44.24922" lon="6.72626">
        <ele>2631.27</ele>
        <time>2020-07-23T12:00:46Z</time>
      </trkpt>
      <trkpt lat="44.24916" lon="6.72626">
        <ele>2630.79</ele>
        <time>2020-07-23T12:01:10Z</time>
      </trkpt>
      <trkpt lat="44.24914" lon="6.72625">
        <ele>2630.3</ele>
        <time>2020-07-23T12:01:42Z</time>
      </trkpt>
      <trkpt lat="44.24915" lon="6.72626">
        <ele>2629.82</ele>
        <time>2020-07-23T12:02:18Z</time>
      </trkpt>
      <trkpt lat="44.24914" lon="6.72625">
        <ele>2629.34</ele>
        <time>2020-07-23T12:02:42Z</time>
      </trkpt>
      <trkpt lat="44.24911" lon="6.72625">
        <ele>2629.34</ele>
        <time>2020-07-23T12:03:06Z</time>
      </trkpt>
      <trkpt lat="44.2491" lon="6.72625">
        <ele>2629.34</ele>
        <time>2020-07-23T12:03:31Z</time>
      </trkpt>
      <trkpt lat="44.24911" lon="6.72626">
        <ele>2627.9</ele>
        <time>2020-07-23T12:03:47Z</time>
      </trkpt>
      <trkpt lat="44.24909" lon="6.72626">
        <ele>2628.38</ele>
        <time>2020-07-23T12:04:14Z</time>
      </trkpt>
      <trkpt lat="44.2491" lon="6.72628">
        <ele>2627.42</ele>
        <time>2020-07-23T12:04:41Z</time>
      </trkpt>
      <trkpt lat="44.24908" lon="6.72627">
        <ele>2628.38</ele>
        <time>2020-07-23T12:05:05Z</time>
      </trkpt>
      <trkpt lat="44.24907" lon="6.72627">
        <ele>2628.86</ele>
        <time>2020-07-23T12:05:27Z</time>
      </trkpt>
      <trkpt lat="44.24906" lon="6.72627">
        <ele>2629.82</ele>
        <time>2020-07-23T12:05:45Z</time>
      </trkpt>
      <trkpt lat="44.24907" lon="6.72628">
        <ele>2630.3</ele>
        <time>2020-07-23T12:06:13Z</time>
      </trkpt>
      <trkpt lat="44.24908" lon="6.72629">
        <ele>2631.27</ele>
        <time>2020-07-23T12:06:38Z</time>
      </trkpt>
      <trkpt lat="44.2491" lon="6.72628">
        <ele>2633.19</ele>
        <time>2020-07-23T12:07:06Z</time>
      </trkpt>
      <trkpt lat="44.24911" lon="6.72629">
        <ele>2634.63</ele>
        <time>2020-07-23T12:07:31Z</time>
      </trkpt>
      <trkpt lat="44.24911" lon="6.72628">
        <ele>2634.63</ele>
        <time>2020-07-23T12:07:53Z</time>
      </trkpt>
      <trkpt lat="44.2491" lon="6.72628">
        <ele>2634.63</ele>
        <time>2020-07-23T12:07:55Z</time>
      </trkpt>
      <trkpt lat="44.24911" lon="6.72627">
        <ele>2634.15</ele>
        <time>2020-07-23T12:08:11Z</time>
      </trkpt>
      <trkpt lat="44.24909" lon="6.72629">
        <ele>2633.19</ele>
        <time>2020-07-23T12:08:24Z</time>
      </trkpt>
      <trkpt lat="44.24909" lon="6.72628">
        <ele>2631.27</ele>
        <time>2020-07-23T12:08:38Z</time>
      </trkpt>
      <trkpt lat="44.24907" lon="6.7263">
        <ele>2630.3</ele>
        <time>2020-07-23T12:08:50Z</time>
      </trkpt>
      <trkpt lat="44.249" lon="6.72642">
        <ele>2630.79</ele>
        <time>2020-07-23T12:09:02Z</time>
      </trkpt>
      <trkpt lat="44.24901" lon="6.72646">
        <ele>2630.3</ele>
        <time>2020-07-23T12:09:10Z</time>
      </trkpt>
      <trkpt lat="44.24906" lon="6.72652">
        <ele>2630.79</ele>
        <time>2020-07-23T12:09:21Z</time>
      </trkpt>
      <trkpt lat="44.24902" lon="6.72655">
        <ele>2632.71</ele>
        <time>2020-07-23T12:09:39Z</time>
      </trkpt>
      <trkpt lat="44.24901" lon="6.72658">
        <ele>2632.23</ele>
        <time>2020-07-23T12:09:45Z</time>
      </trkpt>
      <trkpt lat="44.24892" lon="6.72666">
        <ele>2631.75</ele>
        <time>2020-07-23T12:09:58Z</time>
      </trkpt>
      <trkpt lat="44.24889" lon="6.72669">
        <ele>2630.79</ele>
        <time>2020-07-23T12:10:12Z</time>
      </trkpt>
      <trkpt lat="44.24884" lon="6.72674">
        <ele>2631.75</ele>
        <time>2020-07-23T12:10:27Z</time>
      </trkpt>
      <trkpt lat="44.24879" lon="6.72676">
        <ele>2632.23</ele>
        <time>2020-07-23T12:10:39Z</time>
      </trkpt>
      <trkpt lat="44.24875" lon="6.72679">
        <ele>2632.23</ele>
        <time>2020-07-23T12:10:45Z</time>
      </trkpt>
      <trkpt lat="44.24863" lon="6.72689">
        <ele>2630.3</ele>
        <time>2020-07-23T12:11:00Z</time>
      </trkpt>
      <trkpt lat="44.24852" lon="6.72697">
        <ele>2631.27</ele>
        <time>2020-07-23T12:11:15Z</time>
      </trkpt>
      <trkpt lat="44.24846" lon="6.72699">
        <ele>2631.75</ele>
        <time>2020-07-23T12:11:33Z</time>
      </trkpt>
      <trkpt lat="44.24844" lon="6.72699">
        <ele>2631.27</ele>
        <time>2020-07-23T12:11:36Z</time>
      </trkpt>
      <trkpt lat="44.24837" lon="6.727">
        <ele>2631.27</ele>
        <time>2020-07-23T12:11:50Z</time>
      </trkpt>
      <trkpt lat="44.24828" lon="6.72698">
        <ele>2633.19</ele>
        <time>2020-07-23T12:12:03Z</time>
      </trkpt>
      <trkpt lat="44.24827" lon="6.72698">
        <ele>2632.71</ele>
        <time>2020-07-23T12:12:20Z</time>
      </trkpt>
      <trkpt lat="44.24819" lon="6.72696">
        <ele>2631.75</ele>
        <time>2020-07-23T12:12:36Z</time>
      </trkpt>
      <trkpt lat="44.2481" lon="6.72695">
        <ele>2630.3</ele>
        <time>2020-07-23T12:12:44Z</time>
      </trkpt>
      <trkpt lat="44.24799" lon="6.72691">
        <ele>2630.79</ele>
        <time>2020-07-23T12:12:56Z</time>
      </trkpt>
      <trkpt lat="44.24784" lon="6.72685">
        <ele>2631.27</ele>
        <time>2020-07-23T12:13:12Z</time>
      </trkpt>
      <trkpt lat="44.24773" lon="6.72676">
        <ele>2631.75</ele>
        <time>2020-07-23T12:13:25Z</time>
      </trkpt>
      <trkpt lat="44.24762" lon="6.72672">
        <ele>2633.19</ele>
        <time>2020-07-23T12:13:40Z</time>
      </trkpt>
      <trkpt lat="44.24759" lon="6.72669">
        <ele>2634.63</ele>
        <time>2020-07-23T12:13:56Z</time>
      </trkpt>
      <trkpt lat="44.24745" lon="6.72663">
        <ele>2636.55</ele>
        <time>2020-07-23T12:14:11Z</time>
      </trkpt>
      <trkpt lat="44.24735" lon="6.72658">
        <ele>2637.99</ele>
        <time>2020-07-23T12:14:25Z</time>
      </trkpt>
      <trkpt lat="44.24723" lon="6.72651">
        <ele>2639.44</ele>
        <time>2020-07-23T12:14:40Z</time>
      </trkpt>
      <trkpt lat="44.24717" lon="6.72648">
        <ele>2640.4</ele>
        <time>2020-07-23T12:14:56Z</time>
      </trkpt>
      <trkpt lat="44.24703" lon="6.72643">
        <ele>2643.28</ele>
        <time>2020-07-23T12:15:13Z</time>
      </trkpt>
      <trkpt lat="44.24698" lon="6.72641">
        <ele>2643.76</ele>
        <time>2020-07-23T12:15:28Z</time>
      </trkpt>
      <trkpt lat="44.2469" lon="6.72635">
        <ele>2645.21</ele>
        <time>2020-07-23T12:15:44Z</time>
      </trkpt>
      <trkpt lat="44.2468" lon="6.72626">
        <ele>2647.61</ele>
        <time>2020-07-23T12:15:59Z</time>
      </trkpt>
      <trkpt lat="44.24673" lon="6.72617">
        <ele>2649.05</ele>
        <time>2020-07-23T12:16:12Z</time>
      </trkpt>
      <trkpt lat="44.24666" lon="6.72612">
        <ele>2650.97</ele>
        <time>2020-07-23T12:16:26Z</time>
      </trkpt>
      <trkpt lat="44.24662" lon="6.72607">
        <ele>2650.49</ele>
        <time>2020-07-23T12:16:37Z</time>
      </trkpt>
      <trkpt lat="44.24662" lon="6.72607">
        <ele>2650.49</ele>
        <time>2020-07-23T12:16:51Z</time>
      </trkpt>
      <trkpt lat="44.24659" lon="6.72609">
        <ele>2651.45</ele>
        <time>2020-07-23T12:17:07Z</time>
      </trkpt>
      <trkpt lat="44.24659" lon="6.72609">
        <ele>2650.49</ele>
        <time>2020-07-23T12:17:25Z</time>
      </trkpt>
      <trkpt lat="44.24658" lon="6.726">
        <ele>2651.45</ele>
        <time>2020-07-23T12:17:40Z</time>
      </trkpt>
      <trkpt lat="44.24656" lon="6.7259">
        <ele>2652.9</ele>
        <time>2020-07-23T12:17:54Z</time>
      </trkpt>
      <trkpt lat="44.24657" lon="6.7258">
        <ele>2655.3</ele>
        <time>2020-07-23T12:18:08Z</time>
      </trkpt>
      <trkpt lat="44.24658" lon="6.72573">
        <ele>2656.74</ele>
        <time>2020-07-23T12:18:20Z</time>
      </trkpt>
      <trkpt lat="44.24659" lon="6.72568">
        <ele>2658.66</ele>
        <time>2020-07-23T12:18:34Z</time>
      </trkpt>
      <trkpt lat="44.24656" lon="6.72561">
        <ele>2660.11</ele>
        <time>2020-07-23T12:18:47Z</time>
      </trkpt>
      <trkpt lat="44.24652" lon="6.72557">
        <ele>2662.51</ele>
        <time>2020-07-23T12:19:01Z</time>
      </trkpt>
      <trkpt lat="44.24648" lon="6.72556">
        <ele>2664.91</ele>
        <time>2020-07-23T12:19:15Z</time>
      </trkpt>
      <trkpt lat="44.24645" lon="6.72551">
        <ele>2666.35</ele>
        <time>2020-07-23T12:19:31Z</time>
      </trkpt>
      <trkpt lat="44.24644" lon="6.72547">
        <ele>2667.31</ele>
        <time>2020-07-23T12:19:46Z</time>
      </trkpt>
      <trkpt lat="44.24641" lon="6.72545">
        <ele>2667.8</ele>
        <time>2020-07-23T12:19:57Z</time>
      </trkpt>
      <trkpt lat="44.24638" lon="6.72545">
        <ele>2670.2</ele>
        <time>2020-07-23T12:20:11Z</time>
      </trkpt>
      <trkpt lat="44.24631" lon="6.72544">
        <ele>2673.56</ele>
        <time>2020-07-23T12:20:23Z</time>
      </trkpt>
      <trkpt lat="44.24627" lon="6.72542">
        <ele>2675.01</ele>
        <time>2020-07-23T12:20:37Z</time>
      </trkpt>
      <trkpt lat="44.24622" lon="6.72542">
        <ele>2676.45</ele>
        <time>2020-07-23T12:20:51Z</time>
      </trkpt>
      <trkpt lat="44.24618" lon="6.72538">
        <ele>2676.93</ele>
        <time>2020-07-23T12:21:04Z</time>
      </trkpt>
      <trkpt lat="44.24612" lon="6.72538">
        <ele>2680.29</ele>
        <time>2020-07-23T12:21:18Z</time>
      </trkpt>
      <trkpt lat="44.24605" lon="6.72535">
        <ele>2682.22</ele>
        <time>2020-07-23T12:21:30Z</time>
      </trkpt>
      <trkpt lat="44.24598" lon="6.72534">
        <ele>2683.18</ele>
        <time>2020-07-23T12:21:45Z</time>
      </trkpt>
      <trkpt lat="44.24593" lon="6.72532">
        <ele>2682.22</ele>
        <time>2020-07-23T12:21:56Z</time>
      </trkpt>
      <trkpt lat="44.24592" lon="6.72533">
        <ele>2682.22</ele>
        <time>2020-07-23T12:22:17Z</time>
      </trkpt>
      <trkpt lat="44.24589" lon="6.72534">
        <ele>2682.22</ele>
        <time>2020-07-23T12:22:32Z</time>
      </trkpt>
      <trkpt lat="44.24588" lon="6.72535">
        <ele>2681.25</ele>
        <time>2020-07-23T12:22:57Z</time>
      </trkpt>
      <trkpt lat="44.24584" lon="6.72541">
        <ele>2680.77</ele>
        <time>2020-07-23T12:23:12Z</time>
      </trkpt>
      <trkpt lat="44.24584" lon="6.7254">
        <ele>2679.81</ele>
        <time>2020-07-23T12:23:40Z</time>
      </trkpt>
      <trkpt lat="44.24583" lon="6.7254">
        <ele>2679.81</ele>
        <time>2020-07-23T12:24:00Z</time>
      </trkpt>
      <trkpt lat="44.24583" lon="6.72539">
        <ele>2680.77</ele>
        <time>2020-07-23T12:24:18Z</time>
      </trkpt>
      <trkpt lat="44.24583" lon="6.72539">
        <ele>2681.25</ele>
        <time>2020-07-23T12:24:50Z</time>
      </trkpt>
      <trkpt lat="44.24583" lon="6.7254">
        <ele>2680.77</ele>
        <time>2020-07-23T12:25:13Z</time>
      </trkpt>
      <trkpt lat="44.24583" lon="6.7254">
        <ele>2680.29</ele>
        <time>2020-07-23T12:25:39Z</time>
      </trkpt>
      <trkpt lat="44.24583" lon="6.7254">
        <ele>2679.81</ele>
        <time>2020-07-23T12:25:53Z</time>
      </trkpt>
      <trkpt lat="44.24582" lon="6.72539">
        <ele>2679.81</ele>
        <time>2020-07-23T12:26:11Z</time>
      </trkpt>
      <trkpt lat="44.24581" lon="6.72536">
        <ele>2679.81</ele>
        <time>2020-07-23T12:26:25Z</time>
      </trkpt>
      <trkpt lat="44.24583" lon="6.7253">
        <ele>2680.29</ele>
        <time>2020-07-23T12:26:39Z</time>
      </trkpt>
      <trkpt lat="44.24584" lon="6.72529">
        <ele>2679.81</ele>
        <time>2020-07-23T12:26:42Z</time>
      </trkpt>
      <trkpt lat="44.24584" lon="6.72503">
        <ele>2677.41</ele>
        <time>2020-07-23T12:26:59Z</time>
      </trkpt>
      <trkpt lat="44.24581" lon="6.72497">
        <ele>2676.93</ele>
        <time>2020-07-23T12:27:14Z</time>
      </trkpt>
      <trkpt lat="44.24578" lon="6.72502">
        <ele>2677.41</ele>
        <time>2020-07-23T12:27:28Z</time>
      </trkpt>
      <trkpt lat="44.24576" lon="6.72508">
        <ele>2677.41</ele>
        <time>2020-07-23T12:27:32Z</time>
      </trkpt>
      <trkpt lat="44.24564" lon="6.7252">
        <ele>2675.49</ele>
        <time>2020-07-23T12:27:49Z</time>
      </trkpt>
      <trkpt lat="44.24554" lon="6.72528">
        <ele>2673.08</ele>
        <time>2020-07-23T12:28:04Z</time>
      </trkpt>
      <trkpt lat="44.24542" lon="6.72533">
        <ele>2670.68</ele>
        <time>2020-07-23T12:28:20Z</time>
      </trkpt>
      <trkpt lat="44.24531" lon="6.72536">
        <ele>2668.76</ele>
        <time>2020-07-23T12:28:36Z</time>
      </trkpt>
      <trkpt lat="44.2452" lon="6.72533">
        <ele>2666.83</ele>
        <time>2020-07-23T12:28:53Z</time>
      </trkpt>
      <trkpt lat="44.24519" lon="6.72532">
        <ele>2666.83</ele>
        <time>2020-07-23T12:29:08Z</time>
      </trkpt>
      <trkpt lat="44.24519" lon="6.72532">
        <ele>2666.83</ele>
        <time>2020-07-23T12:29:16Z</time>
      </trkpt>
      <trkpt lat="44.24518" lon="6.72514">
        <ele>2664.43</ele>
        <time>2020-07-23T12:29:33Z</time>
      </trkpt>
      <trkpt lat="44.24518" lon="6.72514">
        <ele>2664.43</ele>
        <time>2020-07-23T12:29:36Z</time>
      </trkpt>
      <trkpt lat="44.24516" lon="6.72516">
        <ele>2664.91</ele>
        <time>2020-07-23T12:29:49Z</time>
      </trkpt>
      <trkpt lat="44.24513" lon="6.72521">
        <ele>2664.91</ele>
        <time>2020-07-23T12:29:54Z</time>
      </trkpt>
      <trkpt lat="44.24507" lon="6.72524">
        <ele>2664.91</ele>
        <time>2020-07-23T12:30:02Z</time>
      </trkpt>
      <trkpt lat="44.24493" lon="6.72521">
        <ele>2661.07</ele>
        <time>2020-07-23T12:30:18Z</time>
      </trkpt>
      <trkpt lat="44.24485" lon="6.72517">
        <ele>2659.62</ele>
        <time>2020-07-23T12:30:33Z</time>
      </trkpt>
      <trkpt lat="44.24479" lon="6.72513">
        <ele>2658.18</ele>
        <time>2020-07-23T12:30:49Z</time>
      </trkpt>
      <trkpt lat="44.24467" lon="6.72513">
        <ele>2656.26</ele>
        <time>2020-07-23T12:31:05Z</time>
      </trkpt>
      <trkpt lat="44.2445" lon="6.72515">
        <ele>2653.86</ele>
        <time>2020-07-23T12:31:21Z</time>
      </trkpt>
      <trkpt lat="44.24449" lon="6.72515">
        <ele>2653.86</ele>
        <time>2020-07-23T12:31:22Z</time>
      </trkpt>
      <trkpt lat="44.24436" lon="6.72514">
        <ele>2651.93</ele>
        <time>2020-07-23T12:31:37Z</time>
      </trkpt>
      <trkpt lat="44.24431" lon="6.72513">
        <ele>2651.45</ele>
        <time>2020-07-23T12:31:49Z</time>
      </trkpt>
      <trkpt lat="44.24415" lon="6.72514">
        <ele>2648.09</ele>
        <time>2020-07-23T12:32:05Z</time>
      </trkpt>
      <trkpt lat="44.24403" lon="6.7252">
        <ele>2646.65</ele>
        <time>2020-07-23T12:32:21Z</time>
      </trkpt>
      <trkpt lat="44.24398" lon="6.72522">
        <ele>2646.17</ele>
        <time>2020-07-23T12:32:38Z</time>
      </trkpt>
      <trkpt lat="44.24395" lon="6.72524">
        <ele>2645.69</ele>
        <time>2020-07-23T12:32:42Z</time>
      </trkpt>
      <trkpt lat="44.2439" lon="6.72525">
        <ele>2645.21</ele>
        <time>2020-07-23T12:32:47Z</time>
      </trkpt>
      <trkpt lat="44.24371" lon="6.72529">
        <ele>2643.76</ele>
        <time>2020-07-23T12:33:04Z</time>
      </trkpt>
      <trkpt lat="44.24351" lon="6.72532">
        <ele>2643.28</ele>
        <time>2020-07-23T12:33:21Z</time>
      </trkpt>
      <trkpt lat="44.24335" lon="6.72531">
        <ele>2642.32</ele>
        <time>2020-07-23T12:33:37Z</time>
      </trkpt>
      <trkpt lat="44.24332" lon="6.72532">
        <ele>2642.8</ele>
        <time>2020-07-23T12:33:40Z</time>
      </trkpt>
      <trkpt lat="44.24321" lon="6.72531">
        <ele>2640.4</ele>
        <time>2020-07-23T12:33:57Z</time>
      </trkpt>
      <trkpt lat="44.24301" lon="6.72532">
        <ele>2639.44</ele>
        <time>2020-07-23T12:34:15Z</time>
      </trkpt>
      <trkpt lat="44.24283" lon="6.72529">
        <ele>2638.96</ele>
        <time>2020-07-23T12:34:31Z</time>
      </trkpt>
      <trkpt lat="44.24272" lon="6.72527">
        <ele>2638.48</ele>
        <time>2020-07-23T12:34:41Z</time>
      </trkpt>
      <trkpt lat="44.24269" lon="6.72526">
        <ele>2637.51</ele>
        <time>2020-07-23T12:34:55Z</time>
      </trkpt>
      <trkpt lat="44.24269" lon="6.72526">
        <ele>2637.03</ele>
        <time>2020-07-23T12:35:20Z</time>
      </trkpt>
      <trkpt lat="44.24256" lon="6.72524">
        <ele>2637.51</ele>
        <time>2020-07-23T12:35:33Z</time>
      </trkpt>
      <trkpt lat="44.2425" lon="6.72521">
        <ele>2635.59</ele>
        <time>2020-07-23T12:35:46Z</time>
      </trkpt>
      <trkpt lat="44.24239" lon="6.72519">
        <ele>2635.11</ele>
        <time>2020-07-23T12:35:58Z</time>
      </trkpt>
      <trkpt lat="44.24232" lon="6.72518">
        <ele>2633.67</ele>
        <time>2020-07-23T12:36:05Z</time>
      </trkpt>
      <trkpt lat="44.24224" lon="6.72514">
        <ele>2633.19</ele>
        <time>2020-07-23T12:36:18Z</time>
      </trkpt>
      <trkpt lat="44.24224" lon="6.72514">
        <ele>2633.19</ele>
        <time>2020-07-23T12:36:40Z</time>
      </trkpt>
      <trkpt lat="44.24206" lon="6.7251">
        <ele>2632.23</ele>
        <time>2020-07-23T12:36:57Z</time>
      </trkpt>
      <trkpt lat="44.24193" lon="6.72502">
        <ele>2631.75</ele>
        <time>2020-07-23T12:37:11Z</time>
      </trkpt>
      <trkpt lat="44.24191" lon="6.72501">
        <ele>2631.27</ele>
        <time>2020-07-23T12:37:14Z</time>
      </trkpt>
      <trkpt lat="44.24176" lon="6.72494">
        <ele>2630.3</ele>
        <time>2020-07-23T12:37:31Z</time>
      </trkpt>
      <trkpt lat="44.24169" lon="6.7249">
        <ele>2628.38</ele>
        <time>2020-07-23T12:37:43Z</time>
      </trkpt>
      <trkpt lat="44.24155" lon="6.72483">
        <ele>2626.94</ele>
        <time>2020-07-23T12:37:58Z</time>
      </trkpt>
      <trkpt lat="44.24141" lon="6.72476">
        <ele>2625.5</ele>
        <time>2020-07-23T12:38:14Z</time>
      </trkpt>
      <trkpt lat="44.24134" lon="6.72472">
        <ele>2624.54</ele>
        <time>2020-07-23T12:38:26Z</time>
      </trkpt>
      <trkpt lat="44.24129" lon="6.7247">
        <ele>2623.09</ele>
        <time>2020-07-23T12:38:38Z</time>
      </trkpt>
      <trkpt lat="44.24127" lon="6.7247">
        <ele>2622.13</ele>
        <time>2020-07-23T12:38:58Z</time>
      </trkpt>
      <trkpt lat="44.24128" lon="6.7247">
        <ele>2621.65</ele>
        <time>2020-07-23T12:39:18Z</time>
      </trkpt>
      <trkpt lat="44.24128" lon="6.72461">
        <ele>2621.17</ele>
        <time>2020-07-23T12:39:31Z</time>
      </trkpt>
      <trkpt lat="44.24128" lon="6.72459">
        <ele>2621.17</ele>
        <time>2020-07-23T12:39:33Z</time>
      </trkpt>
      <trkpt lat="44.24123" lon="6.72443">
        <ele>2619.73</ele>
        <time>2020-07-23T12:39:48Z</time>
      </trkpt>
      <trkpt lat="44.24119" lon="6.7243">
        <ele>2618.29</ele>
        <time>2020-07-23T12:40:02Z</time>
      </trkpt>
      <trkpt lat="44.24108" lon="6.72425">
        <ele>2617.81</ele>
        <time>2020-07-23T12:40:15Z</time>
      </trkpt>
      <trkpt lat="44.24104" lon="6.72424">
        <ele>2618.29</ele>
        <time>2020-07-23T12:40:21Z</time>
      </trkpt>
      <trkpt lat="44.24093" lon="6.72415">
        <ele>2617.33</ele>
        <time>2020-07-23T12:40:36Z</time>
      </trkpt>
      <trkpt lat="44.24081" lon="6.72403">
        <ele>2614.92</ele>
        <time>2020-07-23T12:40:52Z</time>
      </trkpt>
      <trkpt lat="44.24064" lon="6.72387">
        <ele>2613.96</ele>
        <time>2020-07-23T12:41:11Z</time>
      </trkpt>
      <trkpt lat="44.2406" lon="6.72387">
        <ele>2613.48</ele>
        <time>2020-07-23T12:41:15Z</time>
      </trkpt>
      <trkpt lat="44.24056" lon="6.72385">
        <ele>2613.48</ele>
        <time>2020-07-23T12:41:19Z</time>
      </trkpt>
      <trkpt lat="44.24052" lon="6.72384">
        <ele>2613.48</ele>
        <time>2020-07-23T12:41:23Z</time>
      </trkpt>
      <trkpt lat="44.24046" lon="6.72383">
        <ele>2613.48</ele>
        <time>2020-07-23T12:41:29Z</time>
      </trkpt>
      <trkpt lat="44.24043" lon="6.72383">
        <ele>2613</ele>
        <time>2020-07-23T12:41:32Z</time>
      </trkpt>
      <trkpt lat="44.24025" lon="6.72384">
        <ele>2612.04</ele>
        <time>2020-07-23T12:41:49Z</time>
      </trkpt>
      <trkpt lat="44.24021" lon="6.72384">
        <ele>2612.04</ele>
        <time>2020-07-23T12:41:53Z</time>
      </trkpt>
      <trkpt lat="44.2401" lon="6.72382">
        <ele>2611.08</ele>
        <time>2020-07-23T12:42:07Z</time>
      </trkpt>
      <trkpt lat="44.23995" lon="6.72381">
        <ele>2610.6</ele>
        <time>2020-07-23T12:42:23Z</time>
      </trkpt>
      <trkpt lat="44.23979" lon="6.72377">
        <ele>2610.12</ele>
        <time>2020-07-23T12:42:40Z</time>
      </trkpt>
      <trkpt lat="44.23974" lon="6.72378">
        <ele>2609.64</ele>
        <time>2020-07-23T12:42:45Z</time>
      </trkpt>
      <trkpt lat="44.23962" lon="6.72374">
        <ele>2608.67</ele>
        <time>2020-07-23T12:42:58Z</time>
      </trkpt>
      <trkpt lat="44.23949" lon="6.72374">
        <ele>2607.71</ele>
        <time>2020-07-23T12:43:10Z</time>
      </trkpt>
      <trkpt lat="44.23944" lon="6.72371">
        <ele>2607.23</ele>
        <time>2020-07-23T12:43:18Z</time>
      </trkpt>
      <trkpt lat="44.23924" lon="6.72367">
        <ele>2607.23</ele>
        <time>2020-07-23T12:43:37Z</time>
      </trkpt>
      <trkpt lat="44.23915" lon="6.72364">
        <ele>2606.75</ele>
        <time>2020-07-23T12:43:53Z</time>
      </trkpt>
      <trkpt lat="44.23912" lon="6.72362">
        <ele>2606.27</ele>
        <time>2020-07-23T12:44:07Z</time>
      </trkpt>
      <trkpt lat="44.23911" lon="6.72363">
        <ele>2606.75</ele>
        <time>2020-07-23T12:44:20Z</time>
      </trkpt>
      <trkpt lat="44.23911" lon="6.72364">
        <ele>2607.23</ele>
        <time>2020-07-23T12:44:49Z</time>
      </trkpt>
      <trkpt lat="44.23905" lon="6.72358">
        <ele>2606.75</ele>
        <time>2020-07-23T12:45:04Z</time>
      </trkpt>
      <trkpt lat="44.23889" lon="6.72342">
        <ele>2603.39</ele>
        <time>2020-07-23T12:45:22Z</time>
      </trkpt>
      <trkpt lat="44.23881" lon="6.7232">
        <ele>2600.5</ele>
        <time>2020-07-23T12:45:41Z</time>
      </trkpt>
      <trkpt lat="44.23874" lon="6.72309">
        <ele>2599.54</ele>
        <time>2020-07-23T12:45:52Z</time>
      </trkpt>
      <trkpt lat="44.23871" lon="6.72305">
        <ele>2598.58</ele>
        <time>2020-07-23T12:46:08Z</time>
      </trkpt>
      <trkpt lat="44.23871" lon="6.72305">
        <ele>2598.1</ele>
        <time>2020-07-23T12:46:28Z</time>
      </trkpt>
      <trkpt lat="44.23871" lon="6.72304">
        <ele>2598.58</ele>
        <time>2020-07-23T12:46:53Z</time>
      </trkpt>
      <trkpt lat="44.23871" lon="6.72303">
        <ele>2598.1</ele>
        <time>2020-07-23T12:47:20Z</time>
      </trkpt>
      <trkpt lat="44.23862" lon="6.72295">
        <ele>2596.66</ele>
        <time>2020-07-23T12:47:34Z</time>
      </trkpt>
      <trkpt lat="44.23858" lon="6.72292">
        <ele>2597.14</ele>
        <time>2020-07-23T12:47:39Z</time>
      </trkpt>
      <trkpt lat="44.23849" lon="6.72287">
        <ele>2596.66</ele>
        <time>2020-07-23T12:47:49Z</time>
      </trkpt>
      <trkpt lat="44.23835" lon="6.72279">
        <ele>2596.18</ele>
        <time>2020-07-23T12:48:03Z</time>
      </trkpt>
      <trkpt lat="44.23822" lon="6.72262">
        <ele>2596.18</ele>
        <time>2020-07-23T12:48:20Z</time>
      </trkpt>
      <trkpt lat="44.23821" lon="6.72255">
        <ele>2595.22</ele>
        <time>2020-07-23T12:48:34Z</time>
      </trkpt>
      <trkpt lat="44.23819" lon="6.72255">
        <ele>2594.74</ele>
        <time>2020-07-23T12:48:51Z</time>
      </trkpt>
      <trkpt lat="44.2382" lon="6.72253">
        <ele>2594.25</ele>
        <time>2020-07-23T12:49:06Z</time>
      </trkpt>
      <trkpt lat="44.2382" lon="6.72254">
        <ele>2594.74</ele>
        <time>2020-07-23T12:49:09Z</time>
      </trkpt>
      <trkpt lat="44.23815" lon="6.72261">
        <ele>2596.66</ele>
        <time>2020-07-23T12:49:23Z</time>
      </trkpt>
      <trkpt lat="44.23814" lon="6.72262">
        <ele>2597.14</ele>
        <time>2020-07-23T12:49:47Z</time>
      </trkpt>
      <trkpt lat="44.23814" lon="6.72263">
        <ele>2596.18</ele>
        <time>2020-07-23T12:50:06Z</time>
      </trkpt>
      <trkpt lat="44.23817" lon="6.72258">
        <ele>2596.18</ele>
        <time>2020-07-23T12:50:14Z</time>
      </trkpt>
      <trkpt lat="44.23833" lon="6.72247">
        <ele>2595.22</ele>
        <time>2020-07-23T12:50:32Z</time>
      </trkpt>
      <trkpt lat="44.23836" lon="6.72241">
        <ele>2593.77</ele>
        <time>2020-07-23T12:50:41Z</time>
      </trkpt>
      <trkpt lat="44.23832" lon="6.72228">
        <ele>2592.33</ele>
        <time>2020-07-23T12:50:57Z</time>
      </trkpt>
      <trkpt lat="44.23832" lon="6.72228">
        <ele>2592.33</ele>
        <time>2020-07-23T12:51:15Z</time>
      </trkpt>
      <trkpt lat="44.23835" lon="6.72225">
        <ele>2592.81</ele>
        <time>2020-07-23T12:51:36Z</time>
      </trkpt>
      <trkpt lat="44.23838" lon="6.72222">
        <ele>2592.33</ele>
        <time>2020-07-23T12:51:52Z</time>
      </trkpt>
      <trkpt lat="44.23837" lon="6.72222">
        <ele>2591.37</ele>
        <time>2020-07-23T12:52:19Z</time>
      </trkpt>
      <trkpt lat="44.23836" lon="6.72222">
        <ele>2591.85</ele>
        <time>2020-07-23T12:52:43Z</time>
      </trkpt>
      <trkpt lat="44.23836" lon="6.72222">
        <ele>2591.85</ele>
        <time>2020-07-23T12:53:10Z</time>
      </trkpt>
      <trkpt lat="44.23836" lon="6.72222">
        <ele>2592.81</ele>
        <time>2020-07-23T12:53:34Z</time>
      </trkpt>
      <trkpt lat="44.23836" lon="6.72226">
        <ele>2594.25</ele>
        <time>2020-07-23T12:53:49Z</time>
      </trkpt>
      <trkpt lat="44.23836" lon="6.72226">
        <ele>2595.22</ele>
        <time>2020-07-23T12:54:01Z</time>
      </trkpt>
      <trkpt lat="44.23834" lon="6.7222">
        <ele>2595.7</ele>
        <time>2020-07-23T12:54:15Z</time>
      </trkpt>
      <trkpt lat="44.23833" lon="6.72224">
        <ele>2596.66</ele>
        <time>2020-07-23T12:54:32Z</time>
      </trkpt>
      <trkpt lat="44.2383" lon="6.72227">
        <ele>2595.7</ele>
        <time>2020-07-23T12:54:46Z</time>
      </trkpt>
      <trkpt lat="44.23831" lon="6.72229">
        <ele>2595.7</ele>
        <time>2020-07-23T12:54:50Z</time>
      </trkpt>
      <trkpt lat="44.23834" lon="6.72243">
        <ele>2596.66</ele>
        <time>2020-07-23T12:55:05Z</time>
      </trkpt>
      <trkpt lat="44.23827" lon="6.7225">
        <ele>2598.58</ele>
        <time>2020-07-23T12:55:18Z</time>
      </trkpt>
      <trkpt lat="44.23822" lon="6.72255">
        <ele>2599.54</ele>
        <time>2020-07-23T12:55:27Z</time>
      </trkpt>
      <trkpt lat="44.23833" lon="6.72275">
        <ele>2598.58</ele>
        <time>2020-07-23T12:55:44Z</time>
      </trkpt>
      <trkpt lat="44.23834" lon="6.72276">
        <ele>2598.58</ele>
        <time>2020-07-23T12:55:45Z</time>
      </trkpt>
      <trkpt lat="44.23839" lon="6.7228">
        <ele>2599.06</ele>
        <time>2020-07-23T12:55:51Z</time>
      </trkpt>
      <trkpt lat="44.23851" lon="6.72288">
        <ele>2600.02</ele>
        <time>2020-07-23T12:56:06Z</time>
      </trkpt>
      <trkpt lat="44.23865" lon="6.72299">
        <ele>2600.98</ele>
        <time>2020-07-23T12:56:22Z</time>
      </trkpt>
      <trkpt lat="44.23874" lon="6.72309">
        <ele>2602.43</ele>
        <time>2020-07-23T12:56:35Z</time>
      </trkpt>
      <trkpt lat="44.2388" lon="6.72318">
        <ele>2603.87</ele>
        <time>2020-07-23T12:56:45Z</time>
      </trkpt>
      <trkpt lat="44.23886" lon="6.72336">
        <ele>2605.31</ele>
        <time>2020-07-23T12:57:01Z</time>
      </trkpt>
      <trkpt lat="44.23893" lon="6.72347">
        <ele>2606.75</ele>
        <time>2020-07-23T12:57:15Z</time>
      </trkpt>
      <trkpt lat="44.23899" lon="6.72354">
        <ele>2607.71</ele>
        <time>2020-07-23T12:57:24Z</time>
      </trkpt>
      <trkpt lat="44.23913" lon="6.72367">
        <ele>2608.67</ele>
        <time>2020-07-23T12:57:42Z</time>
      </trkpt>
      <trkpt lat="44.23907" lon="6.72376">
        <ele>2606.27</ele>
        <time>2020-07-23T12:57:57Z</time>
      </trkpt>
      <trkpt lat="44.23894" lon="6.72382">
        <ele>2604.35</ele>
        <time>2020-07-23T12:58:15Z</time>
      </trkpt>
      <trkpt lat="44.23882" lon="6.72389">
        <ele>2601.95</ele>
        <time>2020-07-23T12:58:32Z</time>
      </trkpt>
      <trkpt lat="44.23875" lon="6.72393">
        <ele>2601.46</ele>
        <time>2020-07-23T12:58:40Z</time>
      </trkpt>
      <trkpt lat="44.23855" lon="6.724">
        <ele>2600.02</ele>
        <time>2020-07-23T12:59:01Z</time>
      </trkpt>
      <trkpt lat="44.2385" lon="6.72404">
        <ele>2598.1</ele>
        <time>2020-07-23T12:59:15Z</time>
      </trkpt>
      <trkpt lat="44.23868" lon="6.72412">
        <ele>2597.14</ele>
        <time>2020-07-23T12:59:35Z</time>
      </trkpt>
      <trkpt lat="44.23884" lon="6.72416">
        <ele>2595.7</ele>
        <time>2020-07-23T12:59:51Z</time>
      </trkpt>
      <trkpt lat="44.23899" lon="6.72419">
        <ele>2591.37</ele>
        <time>2020-07-23T13:00:10Z</time>
      </trkpt>
      <trkpt lat="44.23911" lon="6.72424">
        <ele>2588.97</ele>
        <time>2020-07-23T13:00:24Z</time>
      </trkpt>
      <trkpt lat="44.23922" lon="6.72432">
        <ele>2587.04</ele>
        <time>2020-07-23T13:00:38Z</time>
      </trkpt>
      <trkpt lat="44.23927" lon="6.72436">
        <ele>2585.6</ele>
        <time>2020-07-23T13:00:45Z</time>
      </trkpt>
      <trkpt lat="44.23942" lon="6.72456">
        <ele>2581.28</ele>
        <time>2020-07-23T13:01:02Z</time>
      </trkpt>
      <trkpt lat="44.23955" lon="6.72468">
        <ele>2577.43</ele>
        <time>2020-07-23T13:01:18Z</time>
      </trkpt>
      <trkpt lat="44.2396" lon="6.7247">
        <ele>2575.99</ele>
        <time>2020-07-23T13:01:24Z</time>
      </trkpt>
      <trkpt lat="44.23959" lon="6.72475">
        <ele>2574.07</ele>
        <time>2020-07-23T13:01:38Z</time>
      </trkpt>
      <trkpt lat="44.23948" lon="6.72477">
        <ele>2571.66</ele>
        <time>2020-07-23T13:01:57Z</time>
      </trkpt>
      <trkpt lat="44.23947" lon="6.72477">
        <ele>2571.18</ele>
        <time>2020-07-23T13:02:11Z</time>
      </trkpt>
      <trkpt lat="44.23928" lon="6.72468">
        <ele>2566.38</ele>
        <time>2020-07-23T13:02:30Z</time>
      </trkpt>
      <trkpt lat="44.23924" lon="6.72466">
        <ele>2566.38</ele>
        <time>2020-07-23T13:02:47Z</time>
      </trkpt>
      <trkpt lat="44.23905" lon="6.72466">
        <ele>2561.09</ele>
        <time>2020-07-23T13:03:03Z</time>
      </trkpt>
      <trkpt lat="44.23904" lon="6.72472">
        <ele>2560.61</ele>
        <time>2020-07-23T13:03:19Z</time>
      </trkpt>
      <trkpt lat="44.23919" lon="6.72478">
        <ele>2559.17</ele>
        <time>2020-07-23T13:03:33Z</time>
      </trkpt>
      <trkpt lat="44.23926" lon="6.72488">
        <ele>2558.69</ele>
        <time>2020-07-23T13:03:47Z</time>
      </trkpt>
      <trkpt lat="44.23927" lon="6.72491">
        <ele>2557.24</ele>
        <time>2020-07-23T13:03:57Z</time>
      </trkpt>
      <trkpt lat="44.23931" lon="6.72498">
        <ele>2557.73</ele>
        <time>2020-07-23T13:04:12Z</time>
      </trkpt>
      <trkpt lat="44.23934" lon="6.72501">
        <ele>2558.21</ele>
        <time>2020-07-23T13:04:25Z</time>
      </trkpt>
      <trkpt lat="44.23937" lon="6.72507">
        <ele>2557.73</ele>
        <time>2020-07-23T13:04:37Z</time>
      </trkpt>
      <trkpt lat="44.2394" lon="6.72514">
        <ele>2556.76</ele>
        <time>2020-07-23T13:04:45Z</time>
      </trkpt>
      <trkpt lat="44.23947" lon="6.72521">
        <ele>2556.28</ele>
        <time>2020-07-23T13:04:55Z</time>
      </trkpt>
      <trkpt lat="44.23957" lon="6.7252">
        <ele>2553.88</ele>
        <time>2020-07-23T13:05:08Z</time>
      </trkpt>
      <trkpt lat="44.23962" lon="6.7252">
        <ele>2552.92</ele>
        <time>2020-07-23T13:05:16Z</time>
      </trkpt>
      <trkpt lat="44.2397" lon="6.72519">
        <ele>2551.48</ele>
        <time>2020-07-23T13:05:30Z</time>
      </trkpt>
      <trkpt lat="44.23972" lon="6.72519">
        <ele>2550.51</ele>
        <time>2020-07-23T13:05:33Z</time>
      </trkpt>
      <trkpt lat="44.23977" lon="6.72518">
        <ele>2549.55</ele>
        <time>2020-07-23T13:05:38Z</time>
      </trkpt>
      <trkpt lat="44.23979" lon="6.72517">
        <ele>2549.55</ele>
        <time>2020-07-23T13:05:40Z</time>
      </trkpt>
      <trkpt lat="44.23984" lon="6.72515">
        <ele>2548.11</ele>
        <time>2020-07-23T13:05:47Z</time>
      </trkpt>
      <trkpt lat="44.23993" lon="6.72508">
        <ele>2546.19</ele>
        <time>2020-07-23T13:05:58Z</time>
      </trkpt>
      <trkpt lat="44.24001" lon="6.72506">
        <ele>2544.75</ele>
        <time>2020-07-23T13:06:09Z</time>
      </trkpt>
      <trkpt lat="44.24008" lon="6.72511">
        <ele>2543.79</ele>
        <time>2020-07-23T13:06:23Z</time>
      </trkpt>
      <trkpt lat="44.24011" lon="6.72515">
        <ele>2542.82</ele>
        <time>2020-07-23T13:06:28Z</time>
      </trkpt>
      <trkpt lat="44.24021" lon="6.72529">
        <ele>2540.42</ele>
        <time>2020-07-23T13:06:45Z</time>
      </trkpt>
      <trkpt lat="44.24029" lon="6.7254">
        <ele>2540.42</ele>
        <time>2020-07-23T13:07:00Z</time>
      </trkpt>
      <trkpt lat="44.24037" lon="6.7255">
        <ele>2539.94</ele>
        <time>2020-07-23T13:07:14Z</time>
      </trkpt>
      <trkpt lat="44.24042" lon="6.72559">
        <ele>2538.98</ele>
        <time>2020-07-23T13:07:28Z</time>
      </trkpt>
      <trkpt lat="44.24045" lon="6.72563">
        <ele>2533.69</ele>
        <time>2020-07-23T13:07:43Z</time>
      </trkpt>
      <trkpt lat="44.2405" lon="6.72566">
        <ele>2531.29</ele>
        <time>2020-07-23T13:08:00Z</time>
      </trkpt>
      <trkpt lat="44.24051" lon="6.72566">
        <ele>2530.33</ele>
        <time>2020-07-23T13:08:32Z</time>
      </trkpt>
      <trkpt lat="44.24051" lon="6.72566">
        <ele>2530.81</ele>
        <time>2020-07-23T13:08:51Z</time>
      </trkpt>
      <trkpt lat="44.2405" lon="6.72566">
        <ele>2530.33</ele>
        <time>2020-07-23T13:09:08Z</time>
      </trkpt>
      <trkpt lat="44.2405" lon="6.72567">
        <ele>2530.33</ele>
        <time>2020-07-23T13:09:42Z</time>
      </trkpt>
      <trkpt lat="44.24049" lon="6.72567">
        <ele>2531.77</ele>
        <time>2020-07-23T13:10:10Z</time>
      </trkpt>
      <trkpt lat="44.24049" lon="6.72567">
        <ele>2531.29</ele>
        <time>2020-07-23T13:10:42Z</time>
      </trkpt>
      <trkpt lat="44.24049" lon="6.72568">
        <ele>2529.85</ele>
        <time>2020-07-23T13:11:15Z</time>
      </trkpt>
      <trkpt lat="44.24049" lon="6.72567">
        <ele>2531.29</ele>
        <time>2020-07-23T13:11:55Z</time>
      </trkpt>
      <trkpt lat="44.2405" lon="6.72567">
        <ele>2531.29</ele>
        <time>2020-07-23T13:12:14Z</time>
      </trkpt>
      <trkpt lat="44.24048" lon="6.72569">
        <ele>2529.85</ele>
        <time>2020-07-23T13:12:43Z</time>
      </trkpt>
      <trkpt lat="44.24048" lon="6.72568">
        <ele>2530.81</ele>
        <time>2020-07-23T13:13:09Z</time>
      </trkpt>
      <trkpt lat="44.24048" lon="6.72566">
        <ele>2530.33</ele>
        <time>2020-07-23T13:13:44Z</time>
      </trkpt>
      <trkpt lat="44.24048" lon="6.72566">
        <ele>2529.85</ele>
        <time>2020-07-23T13:14:19Z</time>
      </trkpt>
      <trkpt lat="44.24048" lon="6.72566">
        <ele>2530.33</ele>
        <time>2020-07-23T13:14:51Z</time>
      </trkpt>
      <trkpt lat="44.24048" lon="6.72568">
        <ele>2530.81</ele>
        <time>2020-07-23T13:15:25Z</time>
      </trkpt>
      <trkpt lat="44.24049" lon="6.72568">
        <ele>2530.81</ele>
        <time>2020-07-23T13:15:51Z</time>
      </trkpt>
      <trkpt lat="44.24049" lon="6.72567">
        <ele>2530.81</ele>
        <time>2020-07-23T13:16:26Z</time>
      </trkpt>
      <trkpt lat="44.24049" lon="6.72567">
        <ele>2532.25</ele>
        <time>2020-07-23T13:16:53Z</time>
      </trkpt>
      <trkpt lat="44.24049" lon="6.72567">
        <ele>2533.21</ele>
        <time>2020-07-23T13:17:41Z</time>
      </trkpt>
      <trkpt lat="44.24049" lon="6.7257">
        <ele>2533.69</ele>
        <time>2020-07-23T13:18:04Z</time>
      </trkpt>
      <trkpt lat="44.24049" lon="6.7257">
        <ele>2534.65</ele>
        <time>2020-07-23T13:18:24Z</time>
      </trkpt>
      <trkpt lat="44.24048" lon="6.7257">
        <ele>2534.65</ele>
        <time>2020-07-23T13:18:38Z</time>
      </trkpt>
      <trkpt lat="44.2405" lon="6.72572">
        <ele>2532.73</ele>
        <time>2020-07-23T13:18:51Z</time>
      </trkpt>
      <trkpt lat="44.2405" lon="6.72573">
        <ele>2533.21</ele>
        <time>2020-07-23T13:18:53Z</time>
      </trkpt>
      <trkpt lat="44.24054" lon="6.72579">
        <ele>2532.25</ele>
        <time>2020-07-23T13:19:06Z</time>
      </trkpt>
      <trkpt lat="44.24058" lon="6.72585">
        <ele>2530.81</ele>
        <time>2020-07-23T13:19:17Z</time>
      </trkpt>
      <trkpt lat="44.24061" lon="6.72591">
        <ele>2528.89</ele>
        <time>2020-07-23T13:19:29Z</time>
      </trkpt>
      <trkpt lat="44.24065" lon="6.72601">
        <ele>2527.44</ele>
        <time>2020-07-23T13:19:41Z</time>
      </trkpt>
      <trkpt lat="44.24067" lon="6.72608">
        <ele>2525.04</ele>
        <time>2020-07-23T13:19:49Z</time>
      </trkpt>
      <trkpt lat="44.24069" lon="6.72614">
        <ele>2523.12</ele>
        <time>2020-07-23T13:19:53Z</time>
      </trkpt>
      <trkpt lat="44.24075" lon="6.72627">
        <ele>2521.19</ele>
        <time>2020-07-23T13:20:07Z</time>
      </trkpt>
      <trkpt lat="44.24075" lon="6.72628">
        <ele>2520.71</ele>
        <time>2020-07-23T13:20:08Z</time>
      </trkpt>
      <trkpt lat="44.24077" lon="6.7264">
        <ele>2520.71</ele>
        <time>2020-07-23T13:20:21Z</time>
      </trkpt>
      <trkpt lat="44.2408" lon="6.72653">
        <ele>2516.39</ele>
        <time>2020-07-23T13:20:35Z</time>
      </trkpt>
      <trkpt lat="44.2408" lon="6.72662">
        <ele>2512.54</ele>
        <time>2020-07-23T13:20:46Z</time>
      </trkpt>
      <trkpt lat="44.24078" lon="6.72669">
        <ele>2509.66</ele>
        <time>2020-07-23T13:20:58Z</time>
      </trkpt>
      <trkpt lat="44.24077" lon="6.72682">
        <ele>2511.58</ele>
        <time>2020-07-23T13:21:12Z</time>
      </trkpt>
      <trkpt lat="44.24079" lon="6.72697">
        <ele>2508.22</ele>
        <time>2020-07-23T13:21:27Z</time>
      </trkpt>
      <trkpt lat="44.2408" lon="6.72718">
        <ele>2504.37</ele>
        <time>2020-07-23T13:21:40Z</time>
      </trkpt>
      <trkpt lat="44.24078" lon="6.72731">
        <ele>2501.49</ele>
        <time>2020-07-23T13:21:55Z</time>
      </trkpt>
      <trkpt lat="44.24076" lon="6.72744">
        <ele>2498.12</ele>
        <time>2020-07-23T13:22:09Z</time>
      </trkpt>
      <trkpt lat="44.24077" lon="6.72759">
        <ele>2496.2</ele>
        <time>2020-07-23T13:22:20Z</time>
      </trkpt>
      <trkpt lat="44.24076" lon="6.7277">
        <ele>2492.84</ele>
        <time>2020-07-23T13:22:29Z</time>
      </trkpt>
      <trkpt lat="44.2407" lon="6.72778">
        <ele>2490.91</ele>
        <time>2020-07-23T13:22:40Z</time>
      </trkpt>
      <trkpt lat="44.24063" lon="6.72789">
        <ele>2492.36</ele>
        <time>2020-07-23T13:22:52Z</time>
      </trkpt>
      <trkpt lat="44.24061" lon="6.72798">
        <ele>2490.43</ele>
        <time>2020-07-23T13:23:03Z</time>
      </trkpt>
      <trkpt lat="44.2406" lon="6.72809">
        <ele>2490.43</ele>
        <time>2020-07-23T13:23:16Z</time>
      </trkpt>
      <trkpt lat="44.24058" lon="6.72818">
        <ele>2488.51</ele>
        <time>2020-07-23T13:23:37Z</time>
      </trkpt>
      <trkpt lat="44.24057" lon="6.72837">
        <ele>2486.11</ele>
        <time>2020-07-23T13:23:54Z</time>
      </trkpt>
      <trkpt lat="44.24055" lon="6.72852">
        <ele>2483.7</ele>
        <time>2020-07-23T13:24:09Z</time>
      </trkpt>
      <trkpt lat="44.24052" lon="6.72859">
        <ele>2486.11</ele>
        <time>2020-07-23T13:24:25Z</time>
      </trkpt>
      <trkpt lat="44.24054" lon="6.72863">
        <ele>2486.11</ele>
        <time>2020-07-23T13:24:38Z</time>
      </trkpt>
      <trkpt lat="44.24053" lon="6.72876">
        <ele>2483.7</ele>
        <time>2020-07-23T13:24:54Z</time>
      </trkpt>
      <trkpt lat="44.24053" lon="6.72895">
        <ele>2484.18</ele>
        <time>2020-07-23T13:25:07Z</time>
      </trkpt>
      <trkpt lat="44.24052" lon="6.72905">
        <ele>2486.59</ele>
        <time>2020-07-23T13:25:20Z</time>
      </trkpt>
      <trkpt lat="44.24056" lon="6.72922">
        <ele>2488.51</ele>
        <time>2020-07-23T13:25:36Z</time>
      </trkpt>
      <trkpt lat="44.2406" lon="6.72938">
        <ele>2490.43</ele>
        <time>2020-07-23T13:25:51Z</time>
      </trkpt>
      <trkpt lat="44.24063" lon="6.72946">
        <ele>2492.36</ele>
        <time>2020-07-23T13:26:04Z</time>
      </trkpt>
      <trkpt lat="44.24065" lon="6.72957">
        <ele>2493.32</ele>
        <time>2020-07-23T13:26:17Z</time>
      </trkpt>
      <trkpt lat="44.24066" lon="6.7297">
        <ele>2496.2</ele>
        <time>2020-07-23T13:26:32Z</time>
      </trkpt>
      <trkpt lat="44.24068" lon="6.72982">
        <ele>2497.16</ele>
        <time>2020-07-23T13:26:45Z</time>
      </trkpt>
      <trkpt lat="44.24067" lon="6.72994">
        <ele>2499.08</ele>
        <time>2020-07-23T13:26:58Z</time>
      </trkpt>
      <trkpt lat="44.24068" lon="6.73004">
        <ele>2500.05</ele>
        <time>2020-07-23T13:27:10Z</time>
      </trkpt>
      <trkpt lat="44.24069" lon="6.73005">
        <ele>2501.49</ele>
        <time>2020-07-23T13:27:24Z</time>
      </trkpt>
      <trkpt lat="44.2407" lon="6.73004">
        <ele>2502.45</ele>
        <time>2020-07-23T13:27:35Z</time>
      </trkpt>
      <trkpt lat="44.24069" lon="6.73004">
        <ele>2501.01</ele>
        <time>2020-07-23T13:27:46Z</time>
      </trkpt>
      <trkpt lat="44.24074" lon="6.73001">
        <ele>2502.45</ele>
        <time>2020-07-23T13:27:57Z</time>
      </trkpt>
      <trkpt lat="44.2408" lon="6.72995">
        <ele>2503.41</ele>
        <time>2020-07-23T13:28:10Z</time>
      </trkpt>
      <trkpt lat="44.24086" lon="6.72992">
        <ele>2504.85</ele>
        <time>2020-07-23T13:28:21Z</time>
      </trkpt>
      <trkpt lat="44.24093" lon="6.72987">
        <ele>2506.29</ele>
        <time>2020-07-23T13:28:33Z</time>
      </trkpt>
      <trkpt lat="44.241" lon="6.72983">
        <ele>2507.26</ele>
        <time>2020-07-23T13:28:47Z</time>
      </trkpt>
      <trkpt lat="44.24107" lon="6.7298">
        <ele>2508.7</ele>
        <time>2020-07-23T13:29:00Z</time>
      </trkpt>
      <trkpt lat="44.24112" lon="6.7298">
        <ele>2509.66</ele>
        <time>2020-07-23T13:29:10Z</time>
      </trkpt>
      <trkpt lat="44.24115" lon="6.72978">
        <ele>2509.66</ele>
        <time>2020-07-23T13:29:23Z</time>
      </trkpt>
      <trkpt lat="44.24119" lon="6.72976">
        <ele>2509.66</ele>
        <time>2020-07-23T13:29:38Z</time>
      </trkpt>
      <trkpt lat="44.2412" lon="6.72974">
        <ele>2510.62</ele>
        <time>2020-07-23T13:29:57Z</time>
      </trkpt>
      <trkpt lat="44.24125" lon="6.7297">
        <ele>2511.1</ele>
        <time>2020-07-23T13:30:09Z</time>
      </trkpt>
      <trkpt lat="44.24129" lon="6.72966">
        <ele>2511.58</ele>
        <time>2020-07-23T13:30:21Z</time>
      </trkpt>
      <trkpt lat="44.2413" lon="6.72967">
        <ele>2513.98</ele>
        <time>2020-07-23T13:30:46Z</time>
      </trkpt>
      <trkpt lat="44.2413" lon="6.72967">
        <ele>2513.98</ele>
        <time>2020-07-23T13:31:08Z</time>
      </trkpt>
      <trkpt lat="44.24129" lon="6.72967">
        <ele>2513.98</ele>
        <time>2020-07-23T13:31:34Z</time>
      </trkpt>
      <trkpt lat="44.2413" lon="6.7296">
        <ele>2513.02</ele>
        <time>2020-07-23T13:31:54Z</time>
      </trkpt>
      <trkpt lat="44.24133" lon="6.72947">
        <ele>2511.58</ele>
        <time>2020-07-23T13:32:07Z</time>
      </trkpt>
      <trkpt lat="44.24138" lon="6.72942">
        <ele>2510.14</ele>
        <time>2020-07-23T13:32:21Z</time>
      </trkpt>
      <trkpt lat="44.24143" lon="6.72939">
        <ele>2509.18</ele>
        <time>2020-07-23T13:32:34Z</time>
      </trkpt>
      <trkpt lat="44.24146" lon="6.72937">
        <ele>2509.18</ele>
        <time>2020-07-23T13:32:38Z</time>
      </trkpt>
      <trkpt lat="44.2415" lon="6.72933">
        <ele>2507.74</ele>
        <time>2020-07-23T13:32:56Z</time>
      </trkpt>
      <trkpt lat="44.2415" lon="6.72933">
        <ele>2506.77</ele>
        <time>2020-07-23T13:33:21Z</time>
      </trkpt>
      <trkpt lat="44.24155" lon="6.72928">
        <ele>2506.29</ele>
        <time>2020-07-23T13:33:39Z</time>
      </trkpt>
      <trkpt lat="44.24169" lon="6.72912">
        <ele>2502.93</ele>
        <time>2020-07-23T13:33:58Z</time>
      </trkpt>
      <trkpt lat="44.24175" lon="6.72907">
        <ele>2502.93</ele>
        <time>2020-07-23T13:34:04Z</time>
      </trkpt>
      <trkpt lat="44.2418" lon="6.72895">
        <ele>2501.97</ele>
        <time>2020-07-23T13:34:15Z</time>
      </trkpt>
      <trkpt lat="44.24182" lon="6.72893">
        <ele>2502.45</ele>
        <time>2020-07-23T13:34:18Z</time>
      </trkpt>
      <trkpt lat="44.24186" lon="6.72886">
        <ele>2500.53</ele>
        <time>2020-07-23T13:34:24Z</time>
      </trkpt>
      <trkpt lat="44.24193" lon="6.72872">
        <ele>2498.6</ele>
        <time>2020-07-23T13:34:36Z</time>
      </trkpt>
      <trkpt lat="44.24197" lon="6.72866">
        <ele>2496.68</ele>
        <time>2020-07-23T13:34:49Z</time>
      </trkpt>
      <trkpt lat="44.24202" lon="6.72858">
        <ele>2494.76</ele>
        <time>2020-07-23T13:34:59Z</time>
      </trkpt>
      <trkpt lat="44.24211" lon="6.7285">
        <ele>2492.36</ele>
        <time>2020-07-23T13:35:13Z</time>
      </trkpt>
      <trkpt lat="44.24219" lon="6.72848">
        <ele>2491.39</ele>
        <time>2020-07-23T13:35:27Z</time>
      </trkpt>
      <trkpt lat="44.24226" lon="6.72846">
        <ele>2489.47</ele>
        <time>2020-07-23T13:35:39Z</time>
      </trkpt>
      <trkpt lat="44.24231" lon="6.72845">
        <ele>2488.99</ele>
        <time>2020-07-23T13:35:52Z</time>
      </trkpt>
      <trkpt lat="44.24237" lon="6.72849">
        <ele>2489.47</ele>
        <time>2020-07-23T13:36:05Z</time>
      </trkpt>
      <trkpt lat="44.24245" lon="6.72848">
        <ele>2485.63</ele>
        <time>2020-07-23T13:36:19Z</time>
      </trkpt>
      <trkpt lat="44.24257" lon="6.72845">
        <ele>2483.7</ele>
        <time>2020-07-23T13:36:34Z</time>
      </trkpt>
      <trkpt lat="44.24257" lon="6.72844">
        <ele>2483.22</ele>
        <time>2020-07-23T13:36:35Z</time>
      </trkpt>
      <trkpt lat="44.24265" lon="6.72843">
        <ele>2481.78</ele>
        <time>2020-07-23T13:36:50Z</time>
      </trkpt>
      <trkpt lat="44.24271" lon="6.72845">
        <ele>2481.3</ele>
        <time>2020-07-23T13:36:59Z</time>
      </trkpt>
      <trkpt lat="44.24287" lon="6.72844">
        <ele>2476.97</ele>
        <time>2020-07-23T13:37:16Z</time>
      </trkpt>
      <trkpt lat="44.24294" lon="6.72843">
        <ele>2471.69</ele>
        <time>2020-07-23T13:37:32Z</time>
      </trkpt>
      <trkpt lat="44.24299" lon="6.72841">
        <ele>2471.69</ele>
        <time>2020-07-23T13:37:39Z</time>
      </trkpt>
      <trkpt lat="44.2431" lon="6.7284">
        <ele>2470.73</ele>
        <time>2020-07-23T13:37:52Z</time>
      </trkpt>
      <trkpt lat="44.24325" lon="6.7284">
        <ele>2471.21</ele>
        <time>2020-07-23T13:38:08Z</time>
      </trkpt>
      <trkpt lat="44.24334" lon="6.72845">
        <ele>2471.21</ele>
        <time>2020-07-23T13:38:21Z</time>
      </trkpt>
      <trkpt lat="44.24343" lon="6.72853">
        <ele>2465.44</ele>
        <time>2020-07-23T13:38:35Z</time>
      </trkpt>
      <trkpt lat="44.24349" lon="6.72857">
        <ele>2465.44</ele>
        <time>2020-07-23T13:38:47Z</time>
      </trkpt>
      <trkpt lat="44.24364" lon="6.72869">
        <ele>2460.63</ele>
        <time>2020-07-23T13:39:05Z</time>
      </trkpt>
      <trkpt lat="44.24371" lon="6.72873">
        <ele>2460.15</ele>
        <time>2020-07-23T13:39:13Z</time>
      </trkpt>
      <trkpt lat="44.24385" lon="6.72882">
        <ele>2458.71</ele>
        <time>2020-07-23T13:39:29Z</time>
      </trkpt>
      <trkpt lat="44.24389" lon="6.72891">
        <ele>2454.86</ele>
        <time>2020-07-23T13:39:43Z</time>
      </trkpt>
      <trkpt lat="44.24395" lon="6.72908">
        <ele>2452.46</ele>
        <time>2020-07-23T13:40:02Z</time>
      </trkpt>
      <trkpt lat="44.24399" lon="6.7292">
        <ele>2451.5</ele>
        <time>2020-07-23T13:40:13Z</time>
      </trkpt>
      <trkpt lat="44.24404" lon="6.72936">
        <ele>2449.1</ele>
        <time>2020-07-23T13:40:27Z</time>
      </trkpt>
      <trkpt lat="44.24405" lon="6.72942">
        <ele>2446.21</ele>
        <time>2020-07-23T13:40:31Z</time>
      </trkpt>
      <trkpt lat="44.24407" lon="6.7295">
        <ele>2444.29</ele>
        <time>2020-07-23T13:40:39Z</time>
      </trkpt>
      <trkpt lat="44.24409" lon="6.72961">
        <ele>2439</ele>
        <time>2020-07-23T13:40:51Z</time>
      </trkpt>
      <trkpt lat="44.24416" lon="6.7297">
        <ele>2434.68</ele>
        <time>2020-07-23T13:41:06Z</time>
      </trkpt>
      <trkpt lat="44.24417" lon="6.72985">
        <ele>2431.79</ele>
        <time>2020-07-23T13:41:23Z</time>
      </trkpt>
      <trkpt lat="44.24417" lon="6.72986">
        <ele>2432.27</ele>
        <time>2020-07-23T13:41:24Z</time>
      </trkpt>
      <trkpt lat="44.24417" lon="6.72999">
        <ele>2427.95</ele>
        <time>2020-07-23T13:41:34Z</time>
      </trkpt>
      <trkpt lat="44.2442" lon="6.73018">
        <ele>2418.81</ele>
        <time>2020-07-23T13:41:50Z</time>
      </trkpt>
      <trkpt lat="44.24421" lon="6.73022">
        <ele>2415.93</ele>
        <time>2020-07-23T13:41:53Z</time>
      </trkpt>
      <trkpt lat="44.24421" lon="6.73041">
        <ele>2413.53</ele>
        <time>2020-07-23T13:42:08Z</time>
      </trkpt>
      <trkpt lat="44.24423" lon="6.73062">
        <ele>2408.72</ele>
        <time>2020-07-23T13:42:24Z</time>
      </trkpt>
      <trkpt lat="44.24429" lon="6.73078">
        <ele>2400.07</ele>
        <time>2020-07-23T13:42:37Z</time>
      </trkpt>
      <trkpt lat="44.2443" lon="6.73082">
        <ele>2397.67</ele>
        <time>2020-07-23T13:42:39Z</time>
      </trkpt>
      <trkpt lat="44.24435" lon="6.73105">
        <ele>2393.82</ele>
        <time>2020-07-23T13:42:57Z</time>
      </trkpt>
      <trkpt lat="44.24442" lon="6.7313">
        <ele>2389.01</ele>
        <time>2020-07-23T13:43:14Z</time>
      </trkpt>
      <trkpt lat="44.24443" lon="6.73134">
        <ele>2386.61</ele>
        <time>2020-07-23T13:43:17Z</time>
      </trkpt>
      <trkpt lat="44.24443" lon="6.73139">
        <ele>2383.73</ele>
        <time>2020-07-23T13:43:21Z</time>
      </trkpt>
      <trkpt lat="44.24444" lon="6.73141">
        <ele>2381.32</ele>
        <time>2020-07-23T13:43:23Z</time>
      </trkpt>
      <trkpt lat="44.24444" lon="6.73153">
        <ele>2384.69</ele>
        <time>2020-07-23T13:43:32Z</time>
      </trkpt>
      <trkpt lat="44.24445" lon="6.73158">
        <ele>2387.09</ele>
        <time>2020-07-23T13:43:36Z</time>
      </trkpt>
      <trkpt lat="44.24447" lon="6.73176">
        <ele>2391.42</ele>
        <time>2020-07-23T13:43:51Z</time>
      </trkpt>
      <trkpt lat="44.24449" lon="6.73188">
        <ele>2390.94</ele>
        <time>2020-07-23T13:44:03Z</time>
      </trkpt>
      <trkpt lat="44.24449" lon="6.73194">
        <ele>2391.42</ele>
        <time>2020-07-23T13:44:09Z</time>
      </trkpt>
      <trkpt lat="44.24444" lon="6.73207">
        <ele>2389.97</ele>
        <time>2020-07-23T13:44:23Z</time>
      </trkpt>
      <trkpt lat="44.24442" lon="6.73219">
        <ele>2395.26</ele>
        <time>2020-07-23T13:44:37Z</time>
      </trkpt>
      <trkpt lat="44.24441" lon="6.73223">
        <ele>2397.18</ele>
        <time>2020-07-23T13:44:40Z</time>
      </trkpt>
      <trkpt lat="44.24435" lon="6.73238">
        <ele>2399.11</ele>
        <time>2020-07-23T13:44:54Z</time>
      </trkpt>
      <trkpt lat="44.24429" lon="6.73252">
        <ele>2397.67</ele>
        <time>2020-07-23T13:45:08Z</time>
      </trkpt>
      <trkpt lat="44.24429" lon="6.73253">
        <ele>2397.18</ele>
        <time>2020-07-23T13:45:09Z</time>
      </trkpt>
      <trkpt lat="44.24424" lon="6.73267">
        <ele>2398.15</ele>
        <time>2020-07-23T13:45:22Z</time>
      </trkpt>
      <trkpt lat="44.24423" lon="6.73275">
        <ele>2401.03</ele>
        <time>2020-07-23T13:45:33Z</time>
      </trkpt>
      <trkpt lat="44.24421" lon="6.73279">
        <ele>2401.51</ele>
        <time>2020-07-23T13:45:36Z</time>
      </trkpt>
      <trkpt lat="44.24415" lon="6.73293">
        <ele>2400.07</ele>
        <time>2020-07-23T13:45:49Z</time>
      </trkpt>
      <trkpt lat="44.24413" lon="6.73297">
        <ele>2401.99</ele>
        <time>2020-07-23T13:46:03Z</time>
      </trkpt>
      <trkpt lat="44.2441" lon="6.73301">
        <ele>2404.39</ele>
        <time>2020-07-23T13:46:20Z</time>
      </trkpt>
      <trkpt lat="44.24405" lon="6.73312">
        <ele>2408.24</ele>
        <time>2020-07-23T13:46:33Z</time>
      </trkpt>
      <trkpt lat="44.24401" lon="6.73325">
        <ele>2410.16</ele>
        <time>2020-07-23T13:46:43Z</time>
      </trkpt>
      <trkpt lat="44.24399" lon="6.73332">
        <ele>2411.6</ele>
        <time>2020-07-23T13:46:53Z</time>
      </trkpt>
      <trkpt lat="44.24396" lon="6.73346">
        <ele>2410.64</ele>
        <time>2020-07-23T13:47:08Z</time>
      </trkpt>
      <trkpt lat="44.24388" lon="6.73359">
        <ele>2409.2</ele>
        <time>2020-07-23T13:47:22Z</time>
      </trkpt>
      <trkpt lat="44.24386" lon="6.73368">
        <ele>2405.84</ele>
        <time>2020-07-23T13:47:34Z</time>
      </trkpt>
      <trkpt lat="44.24384" lon="6.73371">
        <ele>2405.36</ele>
        <time>2020-07-23T13:47:56Z</time>
      </trkpt>
      <trkpt lat="44.24385" lon="6.73371">
        <ele>2406.32</ele>
        <time>2020-07-23T13:48:18Z</time>
      </trkpt>
      <trkpt lat="44.24385" lon="6.73371">
        <ele>2407.76</ele>
        <time>2020-07-23T13:48:39Z</time>
      </trkpt>
      <trkpt lat="44.24385" lon="6.73372">
        <ele>2407.28</ele>
        <time>2020-07-23T13:49:04Z</time>
      </trkpt>
      <trkpt lat="44.24387" lon="6.73372">
        <ele>2407.28</ele>
        <time>2020-07-23T13:49:20Z</time>
      </trkpt>
      <trkpt lat="44.24386" lon="6.73372">
        <ele>2407.76</ele>
        <time>2020-07-23T13:49:44Z</time>
      </trkpt>
      <trkpt lat="44.24386" lon="6.73376">
        <ele>2408.24</ele>
        <time>2020-07-23T13:49:56Z</time>
      </trkpt>
      <trkpt lat="44.24386" lon="6.73383">
        <ele>2408.72</ele>
        <time>2020-07-23T13:50:01Z</time>
      </trkpt>
      <trkpt lat="44.24387" lon="6.73387">
        <ele>2408.24</ele>
        <time>2020-07-23T13:50:04Z</time>
      </trkpt>
      <trkpt lat="44.2439" lon="6.73396">
        <ele>2409.68</ele>
        <time>2020-07-23T13:50:18Z</time>
      </trkpt>
      <trkpt lat="44.2439" lon="6.73405">
        <ele>2408.72</ele>
        <time>2020-07-23T13:50:32Z</time>
      </trkpt>
      <trkpt lat="44.2439" lon="6.73408">
        <ele>2407.28</ele>
        <time>2020-07-23T13:50:45Z</time>
      </trkpt>
      <trkpt lat="44.24386" lon="6.73421">
        <ele>2408.72</ele>
        <time>2020-07-23T13:50:58Z</time>
      </trkpt>
      <trkpt lat="44.24381" lon="6.73433">
        <ele>2409.68</ele>
        <time>2020-07-23T13:51:10Z</time>
      </trkpt>
      <trkpt lat="44.24381" lon="6.73438">
        <ele>2407.76</ele>
        <time>2020-07-23T13:51:25Z</time>
      </trkpt>
      <trkpt lat="44.24379" lon="6.73444">
        <ele>2407.76</ele>
        <time>2020-07-23T13:51:47Z</time>
      </trkpt>
      <trkpt lat="44.24375" lon="6.73451">
        <ele>2410.64</ele>
        <time>2020-07-23T13:51:58Z</time>
      </trkpt>
      <trkpt lat="44.24376" lon="6.73461">
        <ele>2411.12</ele>
        <time>2020-07-23T13:52:11Z</time>
      </trkpt>
      <trkpt lat="44.24375" lon="6.73464">
        <ele>2410.64</ele>
        <time>2020-07-23T13:52:15Z</time>
      </trkpt>
      <trkpt lat="44.24377" lon="6.73475">
        <ele>2410.64</ele>
        <time>2020-07-23T13:52:23Z</time>
      </trkpt>
      <trkpt lat="44.24381" lon="6.73492">
        <ele>2410.64</ele>
        <time>2020-07-23T13:52:37Z</time>
      </trkpt>
      <trkpt lat="44.24381" lon="6.73509">
        <ele>2411.6</ele>
        <time>2020-07-23T13:52:51Z</time>
      </trkpt>
      <trkpt lat="44.24384" lon="6.73526">
        <ele>2412.09</ele>
        <time>2020-07-23T13:53:05Z</time>
      </trkpt>
      <trkpt lat="44.24384" lon="6.73527">
        <ele>2411.6</ele>
        <time>2020-07-23T13:53:22Z</time>
      </trkpt>
      <trkpt lat="44.24383" lon="6.73536">
        <ele>2411.12</ele>
        <time>2020-07-23T13:53:38Z</time>
      </trkpt>
      <trkpt lat="44.24384" lon="6.73554">
        <ele>2411.6</ele>
        <time>2020-07-23T13:53:53Z</time>
      </trkpt>
      <trkpt lat="44.24383" lon="6.73557">
        <ele>2412.09</ele>
        <time>2020-07-23T13:53:55Z</time>
      </trkpt>
      <trkpt lat="44.24381" lon="6.73574">
        <ele>2411.12</ele>
        <time>2020-07-23T13:54:10Z</time>
      </trkpt>
      <trkpt lat="44.24381" lon="6.73581">
        <ele>2410.64</ele>
        <time>2020-07-23T13:54:27Z</time>
      </trkpt>
      <trkpt lat="44.2438" lon="6.73582">
        <ele>2410.64</ele>
        <time>2020-07-23T13:54:31Z</time>
      </trkpt>
      <trkpt lat="44.24374" lon="6.73597">
        <ele>2407.76</ele>
        <time>2020-07-23T13:54:45Z</time>
      </trkpt>
      <trkpt lat="44.24366" lon="6.73613">
        <ele>2403.91</ele>
        <time>2020-07-23T13:55:01Z</time>
      </trkpt>
      <trkpt lat="44.2436" lon="6.73627">
        <ele>2407.76</ele>
        <time>2020-07-23T13:55:14Z</time>
      </trkpt>
      <trkpt lat="44.24359" lon="6.73646">
        <ele>2407.28</ele>
        <time>2020-07-23T13:55:29Z</time>
      </trkpt>
      <trkpt lat="44.24357" lon="6.73662">
        <ele>2405.36</ele>
        <time>2020-07-23T13:55:43Z</time>
      </trkpt>
      <trkpt lat="44.24357" lon="6.73666">
        <ele>2405.36</ele>
        <time>2020-07-23T13:55:48Z</time>
      </trkpt>
      <trkpt lat="44.2435" lon="6.73671">
        <ele>2406.8</ele>
        <time>2020-07-23T13:56:01Z</time>
      </trkpt>
      <trkpt lat="44.24348" lon="6.73674">
        <ele>2406.8</ele>
        <time>2020-07-23T13:56:05Z</time>
      </trkpt>
      <trkpt lat="44.24341" lon="6.73683">
        <ele>2405.84</ele>
        <time>2020-07-23T13:56:20Z</time>
      </trkpt>
      <trkpt lat="44.24335" lon="6.7369">
        <ele>2402.95</ele>
        <time>2020-07-23T13:56:33Z</time>
      </trkpt>
      <trkpt lat="44.24335" lon="6.73691">
        <ele>2402.95</ele>
        <time>2020-07-23T13:56:52Z</time>
      </trkpt>
      <trkpt lat="44.24335" lon="6.73701">
        <ele>2402.95</ele>
        <time>2020-07-23T13:57:04Z</time>
      </trkpt>
      <trkpt lat="44.24336" lon="6.73717">
        <ele>2402.47</ele>
        <time>2020-07-23T13:57:18Z</time>
      </trkpt>
      <trkpt lat="44.24334" lon="6.73734">
        <ele>2400.55</ele>
        <time>2020-07-23T13:57:34Z</time>
      </trkpt>
      <trkpt lat="44.24334" lon="6.73746">
        <ele>2398.15</ele>
        <time>2020-07-23T13:57:47Z</time>
      </trkpt>
      <trkpt lat="44.24334" lon="6.73758">
        <ele>2396.7</ele>
        <time>2020-07-23T13:58:00Z</time>
      </trkpt>
      <trkpt lat="44.24334" lon="6.7377">
        <ele>2394.78</ele>
        <time>2020-07-23T13:58:13Z</time>
      </trkpt>
      <trkpt lat="44.24333" lon="6.73776">
        <ele>2393.34</ele>
        <time>2020-07-23T13:58:20Z</time>
      </trkpt>
      <trkpt lat="44.24331" lon="6.73786">
        <ele>2392.38</ele>
        <time>2020-07-23T13:58:33Z</time>
      </trkpt>
      <trkpt lat="44.2433" lon="6.73803">
        <ele>2390.94</ele>
        <time>2020-07-23T13:58:46Z</time>
      </trkpt>
      <trkpt lat="44.2433" lon="6.73806">
        <ele>2390.94</ele>
        <time>2020-07-23T13:58:48Z</time>
      </trkpt>
      <trkpt lat="44.24323" lon="6.73825">
        <ele>2391.42</ele>
        <time>2020-07-23T13:59:05Z</time>
      </trkpt>
      <trkpt lat="44.24323" lon="6.73827">
        <ele>2391.9</ele>
        <time>2020-07-23T13:59:06Z</time>
      </trkpt>
      <trkpt lat="44.2432" lon="6.73843">
        <ele>2393.34</ele>
        <time>2020-07-23T13:59:22Z</time>
      </trkpt>
      <trkpt lat="44.24317" lon="6.73859">
        <ele>2392.86</ele>
        <time>2020-07-23T13:59:36Z</time>
      </trkpt>
      <trkpt lat="44.24315" lon="6.73871">
        <ele>2392.38</ele>
        <time>2020-07-23T13:59:48Z</time>
      </trkpt>
      <trkpt lat="44.24317" lon="6.73886">
        <ele>2391.9</ele>
        <time>2020-07-23T14:00:03Z</time>
      </trkpt>
      <trkpt lat="44.24321" lon="6.73898">
        <ele>2391.9</ele>
        <time>2020-07-23T14:00:16Z</time>
      </trkpt>
      <trkpt lat="44.24325" lon="6.73906">
        <ele>2391.42</ele>
        <time>2020-07-23T14:00:28Z</time>
      </trkpt>
      <trkpt lat="44.24331" lon="6.73915">
        <ele>2390.94</ele>
        <time>2020-07-23T14:00:41Z</time>
      </trkpt>
      <trkpt lat="44.24334" lon="6.73917">
        <ele>2389.97</ele>
        <time>2020-07-23T14:00:54Z</time>
      </trkpt>
      <trkpt lat="44.2434" lon="6.7392">
        <ele>2389.49</ele>
        <time>2020-07-23T14:01:09Z</time>
      </trkpt>
      <trkpt lat="44.24341" lon="6.73914">
        <ele>2390.46</ele>
        <time>2020-07-23T14:01:20Z</time>
      </trkpt>
      <trkpt lat="44.24339" lon="6.73909">
        <ele>2393.34</ele>
        <time>2020-07-23T14:01:31Z</time>
      </trkpt>
      <trkpt lat="44.24338" lon="6.73904">
        <ele>2393.82</ele>
        <time>2020-07-23T14:01:42Z</time>
      </trkpt>
      <trkpt lat="44.24338" lon="6.73903">
        <ele>2393.82</ele>
        <time>2020-07-23T14:02:03Z</time>
      </trkpt>
      <trkpt lat="44.24337" lon="6.73902">
        <ele>2394.3</ele>
        <time>2020-07-23T14:02:42Z</time>
      </trkpt>
      <trkpt lat="44.24337" lon="6.73902">
        <ele>2394.3</ele>
        <time>2020-07-23T14:03:17Z</time>
      </trkpt>
      <trkpt lat="44.24338" lon="6.73902">
        <ele>2393.82</ele>
        <time>2020-07-23T14:03:47Z</time>
      </trkpt>
      <trkpt lat="44.24338" lon="6.73903">
        <ele>2393.82</ele>
        <time>2020-07-23T14:04:15Z</time>
      </trkpt>
      <trkpt lat="44.24339" lon="6.73903">
        <ele>2392.86</ele>
        <time>2020-07-23T14:04:44Z</time>
      </trkpt>
      <trkpt lat="44.24339" lon="6.73903">
        <ele>2392.38</ele>
        <time>2020-07-23T14:05:23Z</time>
      </trkpt>
      <trkpt lat="44.24338" lon="6.73902">
        <ele>2391.42</ele>
        <time>2020-07-23T14:05:59Z</time>
      </trkpt>
      <trkpt lat="44.24339" lon="6.73903">
        <ele>2390.94</ele>
        <time>2020-07-23T14:06:31Z</time>
      </trkpt>
      <trkpt lat="44.24338" lon="6.73903">
        <ele>2390.94</ele>
        <time>2020-07-23T14:07:12Z</time>
      </trkpt>
      <trkpt lat="44.24339" lon="6.73904">
        <ele>2391.42</ele>
        <time>2020-07-23T14:07:41Z</time>
      </trkpt>
      <trkpt lat="44.24338" lon="6.73903">
        <ele>2391.42</ele>
        <time>2020-07-23T14:08:04Z</time>
      </trkpt>
      <trkpt lat="44.2434" lon="6.73903">
        <ele>2391.9</ele>
        <time>2020-07-23T14:08:35Z</time>
      </trkpt>
      <trkpt lat="44.24338" lon="6.73904">
        <ele>2391.9</ele>
        <time>2020-07-23T14:08:51Z</time>
      </trkpt>
      <trkpt lat="44.24338" lon="6.73903">
        <ele>2391.9</ele>
        <time>2020-07-23T14:09:05Z</time>
      </trkpt>
      <trkpt lat="44.24337" lon="6.73904">
        <ele>2391.9</ele>
        <time>2020-07-23T14:09:20Z</time>
      </trkpt>
      <trkpt lat="44.24337" lon="6.73909">
        <ele>2390.46</ele>
        <time>2020-07-23T14:09:31Z</time>
      </trkpt>
      <trkpt lat="44.24337" lon="6.73917">
        <ele>2389.49</ele>
        <time>2020-07-23T14:09:46Z</time>
      </trkpt>
      <trkpt lat="44.24338" lon="6.73917">
        <ele>2389.01</ele>
        <time>2020-07-23T14:09:47Z</time>
      </trkpt>
      <trkpt lat="44.24348" lon="6.7392">
        <ele>2388.05</ele>
        <time>2020-07-23T14:10:00Z</time>
      </trkpt>
      <trkpt lat="44.24354" lon="6.73922">
        <ele>2387.57</ele>
        <time>2020-07-23T14:10:12Z</time>
      </trkpt>
      <trkpt lat="44.24355" lon="6.73922">
        <ele>2387.57</ele>
        <time>2020-07-23T14:10:13Z</time>
      </trkpt>
      <trkpt lat="44.24362" lon="6.73928">
        <ele>2386.61</ele>
        <time>2020-07-23T14:10:26Z</time>
      </trkpt>
      <trkpt lat="44.24365" lon="6.73932">
        <ele>2386.61</ele>
        <time>2020-07-23T14:10:40Z</time>
      </trkpt>
      <trkpt lat="44.24375" lon="6.73937">
        <ele>2385.17</ele>
        <time>2020-07-23T14:10:53Z</time>
      </trkpt>
      <trkpt lat="44.24382" lon="6.73941">
        <ele>2384.21</ele>
        <time>2020-07-23T14:11:02Z</time>
      </trkpt>
      <trkpt lat="44.24394" lon="6.73943">
        <ele>2382.76</ele>
        <time>2020-07-23T14:11:17Z</time>
      </trkpt>
      <trkpt lat="44.24399" lon="6.73939">
        <ele>2381.32</ele>
        <time>2020-07-23T14:11:29Z</time>
      </trkpt>
      <trkpt lat="44.24407" lon="6.73935">
        <ele>2380.36</ele>
        <time>2020-07-23T14:11:41Z</time>
      </trkpt>
      <trkpt lat="44.24408" lon="6.73935">
        <ele>2380.36</ele>
        <time>2020-07-23T14:11:44Z</time>
      </trkpt>
      <trkpt lat="44.24418" lon="6.73941">
        <ele>2378.44</ele>
        <time>2020-07-23T14:11:57Z</time>
      </trkpt>
      <trkpt lat="44.24429" lon="6.73943">
        <ele>2377</ele>
        <time>2020-07-23T14:12:11Z</time>
      </trkpt>
      <trkpt lat="44.24437" lon="6.73948">
        <ele>2376.52</ele>
        <time>2020-07-23T14:12:23Z</time>
      </trkpt>
      <trkpt lat="44.24449" lon="6.73951">
        <ele>2375.07</ele>
        <time>2020-07-23T14:12:35Z</time>
      </trkpt>
      <trkpt lat="44.24459" lon="6.73951">
        <ele>2374.11</ele>
        <time>2020-07-23T14:12:48Z</time>
      </trkpt>
      <trkpt lat="44.24473" lon="6.73955">
        <ele>2373.15</ele>
        <time>2020-07-23T14:13:03Z</time>
      </trkpt>
      <trkpt lat="44.24477" lon="6.73956">
        <ele>2373.15</ele>
        <time>2020-07-23T14:13:07Z</time>
      </trkpt>
      <trkpt lat="44.24481" lon="6.73956">
        <ele>2372.19</ele>
        <time>2020-07-23T14:13:11Z</time>
      </trkpt>
      <trkpt lat="44.24492" lon="6.7396">
        <ele>2372.19</ele>
        <time>2020-07-23T14:13:24Z</time>
      </trkpt>
      <trkpt lat="44.24494" lon="6.73961">
        <ele>2371.23</ele>
        <time>2020-07-23T14:13:28Z</time>
      </trkpt>
      <trkpt lat="44.24498" lon="6.73963">
        <ele>2370.75</ele>
        <time>2020-07-23T14:13:42Z</time>
      </trkpt>
      <trkpt lat="44.24503" lon="6.73967">
        <ele>2368.83</ele>
        <time>2020-07-23T14:13:51Z</time>
      </trkpt>
      <trkpt lat="44.24505" lon="6.73968">
        <ele>2367.86</ele>
        <time>2020-07-23T14:13:54Z</time>
      </trkpt>
      <trkpt lat="44.24511" lon="6.73971">
        <ele>2367.86</ele>
        <time>2020-07-23T14:14:00Z</time>
      </trkpt>
      <trkpt lat="44.24518" lon="6.7397">
        <ele>2367.38</ele>
        <time>2020-07-23T14:14:08Z</time>
      </trkpt>
      <trkpt lat="44.24533" lon="6.73972">
        <ele>2365.46</ele>
        <time>2020-07-23T14:14:22Z</time>
      </trkpt>
      <trkpt lat="44.24545" lon="6.73974">
        <ele>2364.02</ele>
        <time>2020-07-23T14:14:36Z</time>
      </trkpt>
      <trkpt lat="44.24561" lon="6.73977">
        <ele>2364.02</ele>
        <time>2020-07-23T14:14:53Z</time>
      </trkpt>
      <trkpt lat="44.24564" lon="6.73981">
        <ele>2363.54</ele>
        <time>2020-07-23T14:15:00Z</time>
      </trkpt>
      <trkpt lat="44.24564" lon="6.73988">
        <ele>2363.06</ele>
        <time>2020-07-23T14:15:07Z</time>
      </trkpt>
      <trkpt lat="44.24567" lon="6.73993">
        <ele>2362.58</ele>
        <time>2020-07-23T14:15:12Z</time>
      </trkpt>
      <trkpt lat="44.24572" lon="6.73995">
        <ele>2361.62</ele>
        <time>2020-07-23T14:15:16Z</time>
      </trkpt>
      <trkpt lat="44.24586" lon="6.73993">
        <ele>2360.17</ele>
        <time>2020-07-23T14:15:31Z</time>
      </trkpt>
      <trkpt lat="44.24595" lon="6.73992">
        <ele>2359.69</ele>
        <time>2020-07-23T14:15:40Z</time>
      </trkpt>
      <trkpt lat="44.24604" lon="6.73995">
        <ele>2357.77</ele>
        <time>2020-07-23T14:15:49Z</time>
      </trkpt>
      <trkpt lat="44.24619" lon="6.73991">
        <ele>2356.33</ele>
        <time>2020-07-23T14:16:06Z</time>
      </trkpt>
      <trkpt lat="44.24628" lon="6.73991">
        <ele>2354.89</ele>
        <time>2020-07-23T14:16:19Z</time>
      </trkpt>
      <trkpt lat="44.24632" lon="6.73991">
        <ele>2354.41</ele>
        <time>2020-07-23T14:16:33Z</time>
      </trkpt>
      <trkpt lat="44.2464" lon="6.73991">
        <ele>2352.48</ele>
        <time>2020-07-23T14:16:48Z</time>
      </trkpt>
      <trkpt lat="44.24642" lon="6.73992">
        <ele>2352.48</ele>
        <time>2020-07-23T14:16:51Z</time>
      </trkpt>
      <trkpt lat="44.24656" lon="6.73993">
        <ele>2350.08</ele>
        <time>2020-07-23T14:17:07Z</time>
      </trkpt>
      <trkpt lat="44.24664" lon="6.73995">
        <ele>2348.64</ele>
        <time>2020-07-23T14:17:22Z</time>
      </trkpt>
      <trkpt lat="44.24668" lon="6.73995">
        <ele>2348.64</ele>
        <time>2020-07-23T14:17:26Z</time>
      </trkpt>
      <trkpt lat="44.24679" lon="6.73988">
        <ele>2350.56</ele>
        <time>2020-07-23T14:17:41Z</time>
      </trkpt>
      <trkpt lat="44.24685" lon="6.73981">
        <ele>2354.41</ele>
        <time>2020-07-23T14:17:55Z</time>
      </trkpt>
      <trkpt lat="44.24693" lon="6.7397">
        <ele>2355.37</ele>
        <time>2020-07-23T14:18:08Z</time>
      </trkpt>
      <trkpt lat="44.24702" lon="6.73966">
        <ele>2349.6</ele>
        <time>2020-07-23T14:18:21Z</time>
      </trkpt>
      <trkpt lat="44.24706" lon="6.73965">
        <ele>2347.68</ele>
        <time>2020-07-23T14:18:26Z</time>
      </trkpt>
      <trkpt lat="44.2472" lon="6.73962">
        <ele>2346.72</ele>
        <time>2020-07-23T14:18:41Z</time>
      </trkpt>
      <trkpt lat="44.24729" lon="6.73955">
        <ele>2347.68</ele>
        <time>2020-07-23T14:18:54Z</time>
      </trkpt>
      <trkpt lat="44.24738" lon="6.73947">
        <ele>2344.79</ele>
        <time>2020-07-23T14:19:07Z</time>
      </trkpt>
      <trkpt lat="44.24743" lon="6.73951">
        <ele>2343.35</ele>
        <time>2020-07-23T14:19:19Z</time>
      </trkpt>
      <trkpt lat="44.24747" lon="6.73964">
        <ele>2340.47</ele>
        <time>2020-07-23T14:19:33Z</time>
      </trkpt>
      <trkpt lat="44.24756" lon="6.73972">
        <ele>2339.51</ele>
        <time>2020-07-23T14:19:45Z</time>
      </trkpt>
      <trkpt lat="44.24765" lon="6.73975">
        <ele>2339.02</ele>
        <time>2020-07-23T14:19:59Z</time>
      </trkpt>
      <trkpt lat="44.24778" lon="6.73976">
        <ele>2339.02</ele>
        <time>2020-07-23T14:20:14Z</time>
      </trkpt>
      <trkpt lat="44.24785" lon="6.73982">
        <ele>2337.58</ele>
        <time>2020-07-23T14:20:28Z</time>
      </trkpt>
      <trkpt lat="44.24793" lon="6.73993">
        <ele>2336.62</ele>
        <time>2020-07-23T14:20:41Z</time>
      </trkpt>
      <trkpt lat="44.24801" lon="6.74011">
        <ele>2336.14</ele>
        <time>2020-07-23T14:20:57Z</time>
      </trkpt>
      <trkpt lat="44.24806" lon="6.74017">
        <ele>2334.7</ele>
        <time>2020-07-23T14:21:05Z</time>
      </trkpt>
      <trkpt lat="44.24819" lon="6.74032">
        <ele>2332.3</ele>
        <time>2020-07-23T14:21:22Z</time>
      </trkpt>
      <trkpt lat="44.24822" lon="6.74036">
        <ele>2332.3</ele>
        <time>2020-07-23T14:21:26Z</time>
      </trkpt>
      <trkpt lat="44.24825" lon="6.74038">
        <ele>2332.3</ele>
        <time>2020-07-23T14:21:30Z</time>
      </trkpt>
      <trkpt lat="44.24826" lon="6.74042">
        <ele>2332.78</ele>
        <time>2020-07-23T14:21:32Z</time>
      </trkpt>
      <trkpt lat="44.24839" lon="6.7405">
        <ele>2332.3</ele>
        <time>2020-07-23T14:21:48Z</time>
      </trkpt>
      <trkpt lat="44.24841" lon="6.7405">
        <ele>2331.81</ele>
        <time>2020-07-23T14:21:50Z</time>
      </trkpt>
      <trkpt lat="44.24851" lon="6.74059">
        <ele>2329.41</ele>
        <time>2020-07-23T14:22:03Z</time>
      </trkpt>
      <trkpt lat="44.24854" lon="6.74063">
        <ele>2329.41</ele>
        <time>2020-07-23T14:22:07Z</time>
      </trkpt>
      <trkpt lat="44.24859" lon="6.74066">
        <ele>2329.41</ele>
        <time>2020-07-23T14:22:12Z</time>
      </trkpt>
      <trkpt lat="44.24869" lon="6.74073">
        <ele>2328.45</ele>
        <time>2020-07-23T14:22:26Z</time>
      </trkpt>
      <trkpt lat="44.24873" lon="6.74079">
        <ele>2329.41</ele>
        <time>2020-07-23T14:22:36Z</time>
      </trkpt>
      <trkpt lat="44.24882" lon="6.74081">
        <ele>2329.41</ele>
        <time>2020-07-23T14:22:54Z</time>
      </trkpt>
      <trkpt lat="44.24888" lon="6.74084">
        <ele>2327.97</ele>
        <time>2020-07-23T14:23:04Z</time>
      </trkpt>
      <trkpt lat="44.24887" lon="6.74087">
        <ele>2327.97</ele>
        <time>2020-07-23T14:23:07Z</time>
      </trkpt>
      <trkpt lat="44.24896" lon="6.74093">
        <ele>2325.09</ele>
        <time>2020-07-23T14:23:22Z</time>
      </trkpt>
      <trkpt lat="44.24897" lon="6.74093">
        <ele>2323.16</ele>
        <time>2020-07-23T14:23:46Z</time>
      </trkpt>
      <trkpt lat="44.24898" lon="6.74091">
        <ele>2322.68</ele>
        <time>2020-07-23T14:23:59Z</time>
      </trkpt>
      <trkpt lat="44.24907" lon="6.74093">
        <ele>2321.24</ele>
        <time>2020-07-23T14:24:15Z</time>
      </trkpt>
      <trkpt lat="44.24916" lon="6.741">
        <ele>2319.8</ele>
        <time>2020-07-23T14:24:28Z</time>
      </trkpt>
      <trkpt lat="44.24922" lon="6.74104">
        <ele>2319.32</ele>
        <time>2020-07-23T14:24:43Z</time>
      </trkpt>
      <trkpt lat="44.24928" lon="6.74104">
        <ele>2317.88</ele>
        <time>2020-07-23T14:25:06Z</time>
      </trkpt>
      <trkpt lat="44.24939" lon="6.74099">
        <ele>2317.88</ele>
        <time>2020-07-23T14:25:22Z</time>
      </trkpt>
      <trkpt lat="44.2494" lon="6.74099">
        <ele>2317.4</ele>
        <time>2020-07-23T14:25:23Z</time>
      </trkpt>
      <trkpt lat="44.24944" lon="6.74097">
        <ele>2318.84</ele>
        <time>2020-07-23T14:25:35Z</time>
      </trkpt>
      <trkpt lat="44.24954" lon="6.74097">
        <ele>2316.91</ele>
        <time>2020-07-23T14:25:49Z</time>
      </trkpt>
      <trkpt lat="44.2496" lon="6.741">
        <ele>2317.4</ele>
        <time>2020-07-23T14:26:02Z</time>
      </trkpt>
      <trkpt lat="44.24969" lon="6.74103">
        <ele>2314.99</ele>
        <time>2020-07-23T14:26:16Z</time>
      </trkpt>
      <trkpt lat="44.2497" lon="6.74102">
        <ele>2314.99</ele>
        <time>2020-07-23T14:26:22Z</time>
      </trkpt>
      <trkpt lat="44.24975" lon="6.74105">
        <ele>2314.51</ele>
        <time>2020-07-23T14:26:34Z</time>
      </trkpt>
      <trkpt lat="44.24976" lon="6.74106">
        <ele>2313.07</ele>
        <time>2020-07-23T14:26:58Z</time>
      </trkpt>
      <trkpt lat="44.24984" lon="6.74109">
        <ele>2312.59</ele>
        <time>2020-07-23T14:27:11Z</time>
      </trkpt>
      <trkpt lat="44.24985" lon="6.74115">
        <ele>2311.63</ele>
        <time>2020-07-23T14:27:24Z</time>
      </trkpt>
      <trkpt lat="44.24986" lon="6.74116">
        <ele>2311.63</ele>
        <time>2020-07-23T14:27:27Z</time>
      </trkpt>
      <trkpt lat="44.2499" lon="6.74126">
        <ele>2310.19</ele>
        <time>2020-07-23T14:27:38Z</time>
      </trkpt>
      <trkpt lat="44.24989" lon="6.74135">
        <ele>2311.15</ele>
        <time>2020-07-23T14:27:53Z</time>
      </trkpt>
      <trkpt lat="44.2499" lon="6.74142">
        <ele>2310.19</ele>
        <time>2020-07-23T14:27:58Z</time>
      </trkpt>
      <trkpt lat="44.2499" lon="6.74148">
        <ele>2310.19</ele>
        <time>2020-07-23T14:28:01Z</time>
      </trkpt>
      <trkpt lat="44.2499" lon="6.74153">
        <ele>2310.19</ele>
        <time>2020-07-23T14:28:08Z</time>
      </trkpt>
      <trkpt lat="44.24989" lon="6.74163">
        <ele>2309.22</ele>
        <time>2020-07-23T14:28:20Z</time>
      </trkpt>
      <trkpt lat="44.2499" lon="6.74171">
        <ele>2309.22</ele>
        <time>2020-07-23T14:28:32Z</time>
      </trkpt>
      <trkpt lat="44.24991" lon="6.74179">
        <ele>2308.74</ele>
        <time>2020-07-23T14:28:42Z</time>
      </trkpt>
      <trkpt lat="44.24989" lon="6.74199">
        <ele>2308.26</ele>
        <time>2020-07-23T14:28:58Z</time>
      </trkpt>
      <trkpt lat="44.24989" lon="6.74215">
        <ele>2308.26</ele>
        <time>2020-07-23T14:29:10Z</time>
      </trkpt>
      <trkpt lat="44.24989" lon="6.74231">
        <ele>2307.78</ele>
        <time>2020-07-23T14:29:25Z</time>
      </trkpt>
      <trkpt lat="44.24989" lon="6.7424">
        <ele>2306.82</ele>
        <time>2020-07-23T14:29:31Z</time>
      </trkpt>
      <trkpt lat="44.24989" lon="6.74244">
        <ele>2306.82</ele>
        <time>2020-07-23T14:29:34Z</time>
      </trkpt>
      <trkpt lat="44.2499" lon="6.74253">
        <ele>2306.82</ele>
        <time>2020-07-23T14:29:39Z</time>
      </trkpt>
      <trkpt lat="44.24993" lon="6.74269">
        <ele>2305.38</ele>
        <time>2020-07-23T14:29:52Z</time>
      </trkpt>
      <trkpt lat="44.24995" lon="6.74272">
        <ele>2303.94</ele>
        <time>2020-07-23T14:30:07Z</time>
      </trkpt>
      <trkpt lat="44.24995" lon="6.74269">
        <ele>2301.53</ele>
        <time>2020-07-23T14:30:24Z</time>
      </trkpt>
      <trkpt lat="44.24995" lon="6.74274">
        <ele>2301.05</ele>
        <time>2020-07-23T14:30:47Z</time>
      </trkpt>
      <trkpt lat="44.24998" lon="6.74285">
        <ele>2299.13</ele>
        <time>2020-07-23T14:30:59Z</time>
      </trkpt>
      <trkpt lat="44.25003" lon="6.74289">
        <ele>2298.17</ele>
        <time>2020-07-23T14:31:13Z</time>
      </trkpt>
      <trkpt lat="44.25002" lon="6.74289">
        <ele>2297.69</ele>
        <time>2020-07-23T14:31:29Z</time>
      </trkpt>
      <trkpt lat="44.25004" lon="6.74289">
        <ele>2297.21</ele>
        <time>2020-07-23T14:31:43Z</time>
      </trkpt>
      <trkpt lat="44.25006" lon="6.74298">
        <ele>2296.73</ele>
        <time>2020-07-23T14:31:55Z</time>
      </trkpt>
      <trkpt lat="44.25011" lon="6.74312">
        <ele>2295.77</ele>
        <time>2020-07-23T14:32:08Z</time>
      </trkpt>
      <trkpt lat="44.2501" lon="6.74317">
        <ele>2296.25</ele>
        <time>2020-07-23T14:32:22Z</time>
      </trkpt>
      <trkpt lat="44.25009" lon="6.74325">
        <ele>2293.36</ele>
        <time>2020-07-23T14:32:33Z</time>
      </trkpt>
      <trkpt lat="44.25007" lon="6.74328">
        <ele>2291.44</ele>
        <time>2020-07-23T14:32:45Z</time>
      </trkpt>
      <trkpt lat="44.25005" lon="6.74337">
        <ele>2289.04</ele>
        <time>2020-07-23T14:33:01Z</time>
      </trkpt>
      <trkpt lat="44.25005" lon="6.74338">
        <ele>2288.08</ele>
        <time>2020-07-23T14:33:18Z</time>
      </trkpt>
      <trkpt lat="44.25002" lon="6.7435">
        <ele>2288.08</ele>
        <time>2020-07-23T14:33:31Z</time>
      </trkpt>
      <trkpt lat="44.25006" lon="6.74362">
        <ele>2290.48</ele>
        <time>2020-07-23T14:33:46Z</time>
      </trkpt>
      <trkpt lat="44.25012" lon="6.74366">
        <ele>2291.44</ele>
        <time>2020-07-23T14:33:58Z</time>
      </trkpt>
      <trkpt lat="44.25016" lon="6.74375">
        <ele>2291.92</ele>
        <time>2020-07-23T14:34:10Z</time>
      </trkpt>
      <trkpt lat="44.25021" lon="6.74386">
        <ele>2291.44</ele>
        <time>2020-07-23T14:34:23Z</time>
      </trkpt>
      <trkpt lat="44.25024" lon="6.7439">
        <ele>2290.48</ele>
        <time>2020-07-23T14:34:27Z</time>
      </trkpt>
      <trkpt lat="44.25034" lon="6.74406">
        <ele>2289.04</ele>
        <time>2020-07-23T14:34:42Z</time>
      </trkpt>
      <trkpt lat="44.2504" lon="6.74417">
        <ele>2289.52</ele>
        <time>2020-07-23T14:34:56Z</time>
      </trkpt>
      <trkpt lat="44.25051" lon="6.7443">
        <ele>2286.15</ele>
        <time>2020-07-23T14:35:11Z</time>
      </trkpt>
      <trkpt lat="44.25063" lon="6.74443">
        <ele>2282.79</ele>
        <time>2020-07-23T14:35:26Z</time>
      </trkpt>
      <trkpt lat="44.25066" lon="6.74446">
        <ele>2282.31</ele>
        <time>2020-07-23T14:35:29Z</time>
      </trkpt>
      <trkpt lat="44.25072" lon="6.74451">
        <ele>2281.83</ele>
        <time>2020-07-23T14:35:36Z</time>
      </trkpt>
      <trkpt lat="44.25086" lon="6.74462">
        <ele>2281.35</ele>
        <time>2020-07-23T14:35:53Z</time>
      </trkpt>
      <trkpt lat="44.25094" lon="6.74464">
        <ele>2280.87</ele>
        <time>2020-07-23T14:36:08Z</time>
      </trkpt>
      <trkpt lat="44.25107" lon="6.74468">
        <ele>2279.9</ele>
        <time>2020-07-23T14:36:23Z</time>
      </trkpt>
      <trkpt lat="44.25114" lon="6.74469">
        <ele>2278.94</ele>
        <time>2020-07-23T14:36:35Z</time>
      </trkpt>
      <trkpt lat="44.25125" lon="6.74469">
        <ele>2277.98</ele>
        <time>2020-07-23T14:36:48Z</time>
      </trkpt>
      <trkpt lat="44.25131" lon="6.74467">
        <ele>2280.38</ele>
        <time>2020-07-23T14:37:05Z</time>
      </trkpt>
      <trkpt lat="44.25137" lon="6.7447">
        <ele>2279.9</ele>
        <time>2020-07-23T14:37:20Z</time>
      </trkpt>
      <trkpt lat="44.25138" lon="6.74469">
        <ele>2280.87</ele>
        <time>2020-07-23T14:37:38Z</time>
      </trkpt>
      <trkpt lat="44.25148" lon="6.74466">
        <ele>2281.83</ele>
        <time>2020-07-23T14:37:52Z</time>
      </trkpt>
      <trkpt lat="44.25155" lon="6.74463">
        <ele>2282.31</ele>
        <time>2020-07-23T14:37:59Z</time>
      </trkpt>
      <trkpt lat="44.25157" lon="6.74461">
        <ele>2281.83</ele>
        <time>2020-07-23T14:38:01Z</time>
      </trkpt>
      <trkpt lat="44.25167" lon="6.74457">
        <ele>2280.87</ele>
        <time>2020-07-23T14:38:16Z</time>
      </trkpt>
      <trkpt lat="44.25166" lon="6.74458">
        <ele>2281.35</ele>
        <time>2020-07-23T14:38:18Z</time>
      </trkpt>
      <trkpt lat="44.25168" lon="6.74462">
        <ele>2280.87</ele>
        <time>2020-07-23T14:38:22Z</time>
      </trkpt>
      <trkpt lat="44.25175" lon="6.74465">
        <ele>2278.94</ele>
        <time>2020-07-23T14:38:32Z</time>
      </trkpt>
      <trkpt lat="44.25188" lon="6.74469">
        <ele>2279.9</ele>
        <time>2020-07-23T14:38:49Z</time>
      </trkpt>
      <trkpt lat="44.25189" lon="6.74474">
        <ele>2279.9</ele>
        <time>2020-07-23T14:38:53Z</time>
      </trkpt>
      <trkpt lat="44.25196" lon="6.74483">
        <ele>2275.58</ele>
        <time>2020-07-23T14:39:02Z</time>
      </trkpt>
      <trkpt lat="44.25196" lon="6.74488">
        <ele>2269.81</ele>
        <time>2020-07-23T14:39:15Z</time>
      </trkpt>
      <trkpt lat="44.25197" lon="6.74491">
        <ele>2266.93</ele>
        <time>2020-07-23T14:39:32Z</time>
      </trkpt>
      <trkpt lat="44.25201" lon="6.74499">
        <ele>2267.41</ele>
        <time>2020-07-23T14:39:40Z</time>
      </trkpt>
      <trkpt lat="44.25206" lon="6.74509">
        <ele>2265.96</ele>
        <time>2020-07-23T14:39:53Z</time>
      </trkpt>
      <trkpt lat="44.25218" lon="6.74512">
        <ele>2268.37</ele>
        <time>2020-07-23T14:40:06Z</time>
      </trkpt>
      <trkpt lat="44.25228" lon="6.74514">
        <ele>2271.73</ele>
        <time>2020-07-23T14:40:21Z</time>
      </trkpt>
      <trkpt lat="44.25237" lon="6.74514">
        <ele>2273.17</ele>
        <time>2020-07-23T14:40:36Z</time>
      </trkpt>
      <trkpt lat="44.25247" lon="6.74514">
        <ele>2274.14</ele>
        <time>2020-07-23T14:40:50Z</time>
      </trkpt>
      <trkpt lat="44.25256" lon="6.74512">
        <ele>2277.5</ele>
        <time>2020-07-23T14:41:03Z</time>
      </trkpt>
      <trkpt lat="44.25259" lon="6.7451">
        <ele>2277.5</ele>
        <time>2020-07-23T14:41:16Z</time>
      </trkpt>
      <trkpt lat="44.25268" lon="6.74506">
        <ele>2279.9</ele>
        <time>2020-07-23T14:41:30Z</time>
      </trkpt>
      <trkpt lat="44.25277" lon="6.74506">
        <ele>2279.9</ele>
        <time>2020-07-23T14:41:40Z</time>
      </trkpt>
      <trkpt lat="44.25288" lon="6.74511">
        <ele>2281.35</ele>
        <time>2020-07-23T14:41:56Z</time>
      </trkpt>
      <trkpt lat="44.25293" lon="6.74518">
        <ele>2283.75</ele>
        <time>2020-07-23T14:42:09Z</time>
      </trkpt>
      <trkpt lat="44.25303" lon="6.74528">
        <ele>2285.19</ele>
        <time>2020-07-23T14:42:24Z</time>
      </trkpt>
      <trkpt lat="44.25319" lon="6.74528">
        <ele>2285.19</ele>
        <time>2020-07-23T14:42:39Z</time>
      </trkpt>
      <trkpt lat="44.25335" lon="6.7453">
        <ele>2284.71</ele>
        <time>2020-07-23T14:42:55Z</time>
      </trkpt>
      <trkpt lat="44.25346" lon="6.7453">
        <ele>2286.15</ele>
        <time>2020-07-23T14:43:10Z</time>
      </trkpt>
      <trkpt lat="44.25357" lon="6.74531">
        <ele>2287.59</ele>
        <time>2020-07-23T14:43:25Z</time>
      </trkpt>
      <trkpt lat="44.25361" lon="6.74529">
        <ele>2288.56</ele>
        <time>2020-07-23T14:43:35Z</time>
      </trkpt>
      <trkpt lat="44.25366" lon="6.74528">
        <ele>2286.15</ele>
        <time>2020-07-23T14:43:51Z</time>
      </trkpt>
      <trkpt lat="44.25372" lon="6.74522">
        <ele>2287.59</ele>
        <time>2020-07-23T14:44:04Z</time>
      </trkpt>
      <trkpt lat="44.25377" lon="6.74521">
        <ele>2288.56</ele>
        <time>2020-07-23T14:44:14Z</time>
      </trkpt>
      <trkpt lat="44.25386" lon="6.74514">
        <ele>2289.52</ele>
        <time>2020-07-23T14:44:29Z</time>
      </trkpt>
      <trkpt lat="44.25392" lon="6.74511">
        <ele>2290.96</ele>
        <time>2020-07-23T14:44:42Z</time>
      </trkpt>
      <trkpt lat="44.25397" lon="6.74509">
        <ele>2291.44</ele>
        <time>2020-07-23T14:44:48Z</time>
      </trkpt>
      <trkpt lat="44.25409" lon="6.74506">
        <ele>2293.36</ele>
        <time>2020-07-23T14:45:04Z</time>
      </trkpt>
      <trkpt lat="44.2542" lon="6.74505">
        <ele>2295.28</ele>
        <time>2020-07-23T14:45:18Z</time>
      </trkpt>
      <trkpt lat="44.25428" lon="6.74503">
        <ele>2295.28</ele>
        <time>2020-07-23T14:45:30Z</time>
      </trkpt>
      <trkpt lat="44.25432" lon="6.745">
        <ele>2295.28</ele>
        <time>2020-07-23T14:45:41Z</time>
      </trkpt>
      <trkpt lat="44.25436" lon="6.74499">
        <ele>2295.28</ele>
        <time>2020-07-23T14:45:53Z</time>
      </trkpt>
      <trkpt lat="44.25443" lon="6.74494">
        <ele>2296.25</ele>
        <time>2020-07-23T14:46:06Z</time>
      </trkpt>
      <trkpt lat="44.25453" lon="6.74487">
        <ele>2297.21</ele>
        <time>2020-07-23T14:46:21Z</time>
      </trkpt>
      <trkpt lat="44.2546" lon="6.74481">
        <ele>2297.69</ele>
        <time>2020-07-23T14:46:34Z</time>
      </trkpt>
      <trkpt lat="44.25465" lon="6.74476">
        <ele>2300.09</ele>
        <time>2020-07-23T14:46:47Z</time>
      </trkpt>
      <trkpt lat="44.25475" lon="6.74471">
        <ele>2302.98</ele>
        <time>2020-07-23T14:47:01Z</time>
      </trkpt>
      <trkpt lat="44.25487" lon="6.74465">
        <ele>2304.9</ele>
        <time>2020-07-23T14:47:16Z</time>
      </trkpt>
      <trkpt lat="44.255" lon="6.74464">
        <ele>2306.34</ele>
        <time>2020-07-23T14:47:31Z</time>
      </trkpt>
      <trkpt lat="44.2551" lon="6.74464">
        <ele>2308.26</ele>
        <time>2020-07-23T14:47:44Z</time>
      </trkpt>
      <trkpt lat="44.25522" lon="6.74465">
        <ele>2309.7</ele>
        <time>2020-07-23T14:47:59Z</time>
      </trkpt>
      <trkpt lat="44.25532" lon="6.74469">
        <ele>2309.7</ele>
        <time>2020-07-23T14:48:12Z</time>
      </trkpt>
      <trkpt lat="44.25535" lon="6.7447">
        <ele>2310.19</ele>
        <time>2020-07-23T14:48:15Z</time>
      </trkpt>
      <trkpt lat="44.2555" lon="6.74466">
        <ele>2311.63</ele>
        <time>2020-07-23T14:48:31Z</time>
      </trkpt>
      <trkpt lat="44.25565" lon="6.74463">
        <ele>2311.63</ele>
        <time>2020-07-23T14:48:45Z</time>
      </trkpt>
      <trkpt lat="44.25582" lon="6.74458">
        <ele>2308.74</ele>
        <time>2020-07-23T14:49:01Z</time>
      </trkpt>
      <trkpt lat="44.256" lon="6.74453">
        <ele>2308.74</ele>
        <time>2020-07-23T14:49:19Z</time>
      </trkpt>
      <trkpt lat="44.25615" lon="6.74449">
        <ele>2308.74</ele>
        <time>2020-07-23T14:49:35Z</time>
      </trkpt>
      <trkpt lat="44.25628" lon="6.74441">
        <ele>2308.26</ele>
        <time>2020-07-23T14:49:50Z</time>
      </trkpt>
      <trkpt lat="44.25641" lon="6.74436">
        <ele>2309.7</ele>
        <time>2020-07-23T14:50:05Z</time>
      </trkpt>
      <trkpt lat="44.25653" lon="6.74432">
        <ele>2309.7</ele>
        <time>2020-07-23T14:50:20Z</time>
      </trkpt>
      <trkpt lat="44.25663" lon="6.74433">
        <ele>2309.7</ele>
        <time>2020-07-23T14:50:33Z</time>
      </trkpt>
      <trkpt lat="44.25664" lon="6.74434">
        <ele>2310.19</ele>
        <time>2020-07-23T14:50:34Z</time>
      </trkpt>
      <trkpt lat="44.25675" lon="6.74437">
        <ele>2311.63</ele>
        <time>2020-07-23T14:50:48Z</time>
      </trkpt>
      <trkpt lat="44.25682" lon="6.74435">
        <ele>2311.63</ele>
        <time>2020-07-23T14:50:56Z</time>
      </trkpt>
      <trkpt lat="44.25698" lon="6.74427">
        <ele>2310.67</ele>
        <time>2020-07-23T14:51:13Z</time>
      </trkpt>
      <trkpt lat="44.25711" lon="6.74421">
        <ele>2310.67</ele>
        <time>2020-07-23T14:51:29Z</time>
      </trkpt>
      <trkpt lat="44.25725" lon="6.74412">
        <ele>2309.22</ele>
        <time>2020-07-23T14:51:45Z</time>
      </trkpt>
      <trkpt lat="44.25739" lon="6.74405">
        <ele>2310.19</ele>
        <time>2020-07-23T14:52:02Z</time>
      </trkpt>
      <trkpt lat="44.25745" lon="6.74402">
        <ele>2311.63</ele>
        <time>2020-07-23T14:52:10Z</time>
      </trkpt>
      <trkpt lat="44.25755" lon="6.74402">
        <ele>2313.55</ele>
        <time>2020-07-23T14:52:22Z</time>
      </trkpt>
      <trkpt lat="44.25762" lon="6.74401">
        <ele>2314.51</ele>
        <time>2020-07-23T14:52:30Z</time>
      </trkpt>
      <trkpt lat="44.25776" lon="6.74399">
        <ele>2314.99</ele>
        <time>2020-07-23T14:52:47Z</time>
      </trkpt>
      <trkpt lat="44.25785" lon="6.74397">
        <ele>2316.91</ele>
        <time>2020-07-23T14:53:01Z</time>
      </trkpt>
      <trkpt lat="44.2579" lon="6.74402">
        <ele>2318.36</ele>
        <time>2020-07-23T14:53:14Z</time>
      </trkpt>
      <trkpt lat="44.258" lon="6.744">
        <ele>2318.84</ele>
        <time>2020-07-23T14:53:28Z</time>
      </trkpt>
      <trkpt lat="44.25808" lon="6.74395">
        <ele>2320.76</ele>
        <time>2020-07-23T14:53:45Z</time>
      </trkpt>
      <trkpt lat="44.25814" lon="6.74387">
        <ele>2321.72</ele>
        <time>2020-07-23T14:53:58Z</time>
      </trkpt>
      <trkpt lat="44.2582" lon="6.74379">
        <ele>2323.64</ele>
        <time>2020-07-23T14:54:12Z</time>
      </trkpt>
      <trkpt lat="44.25826" lon="6.74371">
        <ele>2323.64</ele>
        <time>2020-07-23T14:54:26Z</time>
      </trkpt>
      <trkpt lat="44.25835" lon="6.74365">
        <ele>2326.05</ele>
        <time>2020-07-23T14:54:41Z</time>
      </trkpt>
      <trkpt lat="44.2584" lon="6.74363">
        <ele>2326.53</ele>
        <time>2020-07-23T14:54:54Z</time>
      </trkpt>
      <trkpt lat="44.25848" lon="6.74361">
        <ele>2328.45</ele>
        <time>2020-07-23T14:55:07Z</time>
      </trkpt>
      <trkpt lat="44.25858" lon="6.7436">
        <ele>2330.37</ele>
        <time>2020-07-23T14:55:21Z</time>
      </trkpt>
      <trkpt lat="44.25868" lon="6.74364">
        <ele>2331.33</ele>
        <time>2020-07-23T14:55:36Z</time>
      </trkpt>
      <trkpt lat="44.25876" lon="6.74371">
        <ele>2332.78</ele>
        <time>2020-07-23T14:55:49Z</time>
      </trkpt>
      <trkpt lat="44.25877" lon="6.74372">
        <ele>2332.78</ele>
        <time>2020-07-23T14:55:51Z</time>
      </trkpt>
      <trkpt lat="44.25888" lon="6.74379">
        <ele>2332.78</ele>
        <time>2020-07-23T14:56:05Z</time>
      </trkpt>
      <trkpt lat="44.25892" lon="6.7438">
        <ele>2332.78</ele>
        <time>2020-07-23T14:56:09Z</time>
      </trkpt>
      <trkpt lat="44.25903" lon="6.74388">
        <ele>2330.85</ele>
        <time>2020-07-23T14:56:26Z</time>
      </trkpt>
      <trkpt lat="44.25915" lon="6.74393">
        <ele>2329.41</ele>
        <time>2020-07-23T14:56:41Z</time>
      </trkpt>
      <trkpt lat="44.25916" lon="6.74395">
        <ele>2326.53</ele>
        <time>2020-07-23T14:57:03Z</time>
      </trkpt>
      <trkpt lat="44.25923" lon="6.74398">
        <ele>2327.97</ele>
        <time>2020-07-23T14:57:15Z</time>
      </trkpt>
      <trkpt lat="44.25932" lon="6.74407">
        <ele>2327.97</ele>
        <time>2020-07-23T14:57:29Z</time>
      </trkpt>
      <trkpt lat="44.25938" lon="6.74411">
        <ele>2327.01</ele>
        <time>2020-07-23T14:57:42Z</time>
      </trkpt>
      <trkpt lat="44.25937" lon="6.74416">
        <ele>2328.45</ele>
        <time>2020-07-23T14:57:55Z</time>
      </trkpt>
      <trkpt lat="44.25938" lon="6.74411">
        <ele>2326.05</ele>
        <time>2020-07-23T14:58:12Z</time>
      </trkpt>
      <trkpt lat="44.25938" lon="6.74405">
        <ele>2326.05</ele>
        <time>2020-07-23T14:58:24Z</time>
      </trkpt>
      <trkpt lat="44.25938" lon="6.74403">
        <ele>2326.05</ele>
        <time>2020-07-23T14:58:43Z</time>
      </trkpt>
      <trkpt lat="44.25938" lon="6.74402">
        <ele>2325.09</ele>
        <time>2020-07-23T14:59:05Z</time>
      </trkpt>
    </trkseg>
  </trk>
</gpx>